AA6039 / N624AE 7700 Squawk Report (13th of July, 2021)

Aircraft E145 Reg No. N624AE Age N/A
Model ERJ-145 Jet engines 2 First flight 02-99
Registered 02-06-17 Rollout 02-99 Delivered 25-02-99
Construction No. 145111 Line No. N/A Series LR
ADSHEX A8251E Airline name Envoy Air Owner Piedmont Airlines
Airfield based Philadelphia International~PA~N First tracked N/A

Flight history for N624AE

Route Flight No Date Playback
Philadelphia Intl (PHL) - Piedmont Triad (GSO) AA6201 2021-08-01 00:09:00
Philadelphia Intl (PHL) - Long Island Mac Arthur (ISP) - Philadelphia Intl (PHL) AA6264 2021-07-31 20:43:00
Philadelphia Intl (PHL) - Dane Co Rgnl Truax Fld (MSN) - Philadelphia Intl (PHL) AA6013 2021-07-31 17:01:00
Cleveland Hopkins Intl (CLE) - Philadelphia Intl (PHL) N/A 2021-07-31 11:21:00
Philadelphia Intl (PHL) - Cleveland Hopkins Intl (CLE) N/A 2021-07-31 00:52:00
Harrisburg Intl (MDT) - Philadelphia Intl (PHL) N/A 2021-07-30 20:19:00
Blue Grass (LEX) - Philadelphia Intl (PHL) N/A 2021-07-30 16:55:00
Philadelphia Intl (PHL) - Blue Grass (LEX) AA6175 2021-07-30 15:39:00
Watertown Intl (ART) - Philadelphia Intl (PHL) AA6080 2021-07-30 11:19:00
Philadelphia Intl (PHL) - Watertown Intl (ART) AA6276 2021-07-30 02:28:00
Richmond Intl (RIC) - Philadelphia Intl (PHL) AA6076 2021-07-29 23:22:00
Albany Intl (ALB) - Philadelphia Intl (PHL) AA6259 2021-07-29 18:50:00
Chicago Ohare Intl (ORD) - Albany Intl (ALB) AA6133 2021-07-29 17:06:00
Harrisburg Intl (MDT) - Chicago Ohare Intl (ORD) AA6241 2021-07-29 12:48:00
Charlotte Douglas (CLT) - Harrisburg Intl (MDT) AA6017 2021-07-28 20:31:00
Charlotte Douglas (CLT) - Greenville-Spartanburg International (GSP) - Charlotte Douglas (CLT) AA6007 2021-07-28 17:34:00
Blue Grass (LEX) - Charlotte Douglas (CLT) AA6024 2021-07-28 13:29:00
Charlotte Douglas (CLT) - Blue Grass (LEX) AA6025 2021-07-28 12:23:00
Piedmont Triad (GSO) - Charlotte Douglas (CLT) AA6198 2021-07-28 01:10:00
Mobile Rgnl (MOB) - Charlotte Douglas (CLT) N/A 2021-07-25 16:39:00
Time Lat Lon Altitude Heading Speed Vertical Rate
2021-07-13 16:42:00 GMT 39.883469 -75.236870 0 264 16 96
2021-07-13 16:41:59 GMT 39.883438 -75.237152 0 264 16 96
2021-07-13 16:41:58 GMT 39.883450 -75.237061 0 264 16 96
2021-07-13 16:41:57 GMT 39.883461 -75.236961 0 264 16 96
2021-07-13 16:41:56 GMT 39.883469 -75.236870 0 268 16 96
2021-07-13 16:41:54 GMT 39.883492 -75.236649 0 302 13 96
2021-07-13 16:41:53 GMT 39.883469 -75.236481 0 323 15 96
2021-07-13 16:41:52 GMT 39.883430 -75.236443 0 326 16 96
2021-07-13 16:41:50 GMT 39.883369 -75.236351 0 332 15 96
2021-07-13 16:41:48 GMT 39.883240 -75.236229 0 340 16 96
2021-07-13 16:41:47 GMT 39.883179 -75.236221 0 336 16 96
2021-07-13 16:41:46 GMT 39.883129 -75.236221 0 332 20 96
2021-07-13 16:41:44 GMT 39.882969 -75.236092 0 341 21 96
2021-07-13 16:41:43 GMT 39.882858 -75.236053 0 338 20 96
2021-07-13 16:41:41 GMT 39.882690 -75.235970 0 339 20 96
2021-07-13 16:41:40 GMT 39.882610 -75.235909 0 342 20 96
2021-07-13 16:41:38 GMT 39.882439 -75.235840 0 340 21 96
2021-07-13 16:41:37 GMT 39.882351 -75.235809 0 337 21 96
2021-07-13 16:41:35 GMT 39.882172 -75.235703 0 341 20 96
2021-07-13 16:41:34 GMT 39.882092 -75.235680 0 337 21 96
2021-07-13 16:41:33 GMT 39.882000 -75.235626 0 338 22 96
2021-07-13 16:41:31 GMT 39.881809 -75.235542 0 340 21 96
2021-07-13 16:41:30 GMT 39.881729 -75.235512 0 339 23 96
2021-07-13 16:41:29 GMT 39.881618 -75.235481 0 335 22 96
2021-07-13 16:41:28 GMT 39.881420 -75.235367 0 335 22 96
2021-07-13 16:41:26 GMT 39.881310 -75.235313 0 333 21 96
2021-07-13 16:41:25 GMT 39.881142 -75.235184 0 339 19 96
2021-07-13 16:41:23 GMT 39.881069 -75.235153 0 339 20 96
2021-07-13 16:41:22 GMT 39.881008 -75.235107 0 341 23 96
2021-07-13 16:41:20 GMT 39.880810 -75.235008 0 344 21 96
2021-07-13 16:41:19 GMT 39.880699 -75.234978 0 341 20 96
2021-07-13 16:41:18 GMT 39.880611 -75.234947 0 339 20 96
2021-07-13 16:41:16 GMT 39.880428 -75.234879 0 331 19 96
2021-07-13 16:41:15 GMT 39.880360 -75.234833 0 332 20 96
2021-07-13 16:41:14 GMT 39.880260 -75.234756 0 333 18 96
2021-07-13 16:41:13 GMT 39.880119 -75.234673 0 340 21 96
2021-07-13 16:41:11 GMT 39.879921 -75.234581 0 339 20 96
2021-07-13 16:41:09 GMT 39.879841 -75.234528 0 341 19 96
2021-07-13 16:41:08 GMT 39.879650 -75.234451 0 346 16 96
2021-07-13 16:41:06 GMT 39.879570 -75.234421 0 349 14 96
2021-07-13 16:41:05 GMT 39.879509 -75.234398 0 350 15 96
2021-07-13 16:41:03 GMT 39.879398 -75.234337 0 3 20 96
2021-07-13 16:41:02 GMT 39.879330 -75.234329 0 1 21 96
2021-07-13 16:41:01 GMT 39.879261 -75.234352 0 354 21 96
2021-07-13 16:40:59 GMT 39.879070 -75.234337 0 334 17 96
2021-07-13 16:40:58 GMT 39.878979 -75.234306 0 320 15 96
2021-07-13 16:40:57 GMT 39.878880 -75.234291 0 301 14 96
2021-07-13 16:40:55 GMT 39.878780 -75.234161 0 279 16 96
2021-07-13 16:40:54 GMT 39.878738 -75.234077 0 264 18 96
2021-07-13 16:40:53 GMT 39.878731 -75.233978 0 261 18 96
2021-07-13 16:40:51 GMT 39.878761 -75.233788 0 275 18 96
2021-07-13 16:40:50 GMT 39.878769 -75.233704 0 285 18 96
2021-07-13 16:40:49 GMT 39.878738 -75.233437 0 304 14 96
2021-07-13 16:40:47 GMT 39.878681 -75.233276 0 316 14 96
2021-07-13 16:40:45 GMT 39.878658 -75.233200 0 333 16 96
2021-07-13 16:40:43 GMT 39.878551 -75.233109 0 340 18 96
2021-07-13 16:40:42 GMT 39.878380 -75.233047 0 333 16 96
2021-07-13 16:40:40 GMT 39.878330 -75.233009 0 334 17 96
2021-07-13 16:40:39 GMT 39.878250 -75.232948 0 338 17 96
2021-07-13 16:40:37 GMT 39.878101 -75.232872 0 338 16 96
2021-07-13 16:40:36 GMT 39.878040 -75.232819 0 342 16 96
2021-07-13 16:40:35 GMT 39.877911 -75.232780 0 337 17 96
2021-07-13 16:40:34 GMT 39.877838 -75.232727 0 340 17 96
2021-07-13 16:40:32 GMT 39.877762 -75.232712 0 334 17 96
2021-07-13 16:40:31 GMT 39.877682 -75.232674 0 333 16 96
2021-07-13 16:40:29 GMT 39.877560 -75.232582 0 339 18 96
2021-07-13 16:40:28 GMT 39.877468 -75.232529 0 340 17 96
2021-07-13 16:40:27 GMT 39.877411 -75.232491 0 344 19 96
2021-07-13 16:40:25 GMT 39.877232 -75.232437 0 340 18 96
2021-07-13 16:40:24 GMT 39.877151 -75.232407 0 334 16 96
2021-07-13 16:40:23 GMT 39.877010 -75.232330 0 337 16 96
2021-07-13 16:40:21 GMT 39.876949 -75.232300 0 335 17 96
2021-07-13 16:40:20 GMT 39.876869 -75.232262 0 335 16 96
2021-07-13 16:40:18 GMT 39.876751 -75.232170 0 340 19 96
2021-07-13 16:40:17 GMT 39.876659 -75.232132 0 340 18 96
2021-07-13 16:40:15 GMT 39.876499 -75.232071 0 337 18 96
2021-07-13 16:40:14 GMT 39.876411 -75.232033 0 337 17 96
2021-07-13 16:40:12 GMT 39.876209 -75.231911 0 341 20 96
2021-07-13 16:40:10 GMT 39.876030 -75.231827 0 339 20 96
2021-07-13 16:40:08 GMT 39.875938 -75.231796 0 339 21 96
2021-07-13 16:40:07 GMT 39.875839 -75.231750 0 340 19 96
2021-07-13 16:40:06 GMT 39.875759 -75.231720 0 336 19 96
2021-07-13 16:40:05 GMT 39.875599 -75.231644 0 333 20 96
2021-07-13 16:40:03 GMT 39.875530 -75.231567 0 338 21 96
2021-07-13 16:40:02 GMT 39.875462 -75.231529 0 340 23 96
2021-07-13 16:40:01 GMT 39.875240 -75.231430 0 343 20 96
2021-07-13 16:39:59 GMT 39.875149 -75.231400 0 340 20 96
2021-07-13 16:39:57 GMT 39.874969 -75.231339 0 335 22 96
2021-07-13 16:39:56 GMT 39.874889 -75.231293 0 336 23 96
2021-07-13 16:39:54 GMT 39.874691 -75.231178 0 338 22 96
2021-07-13 16:39:53 GMT 39.874611 -75.231133 0 338 24 96
2021-07-13 16:39:51 GMT 39.874390 -75.231018 0 339 22 96
2021-07-13 16:39:48 GMT 39.874119 -75.230904 0 339 20 96
2021-07-13 16:39:47 GMT 39.874031 -75.230850 0 340 20 96
2021-07-13 16:39:46 GMT 39.873959 -75.230820 0 341 23 96
2021-07-13 16:39:44 GMT 39.873772 -75.230743 0 336 23 96
2021-07-13 16:39:43 GMT 39.873680 -75.230690 0 336 25 96
2021-07-13 16:39:42 GMT 39.873562 -75.230629 0 334 23 96
2021-07-13 16:39:40 GMT 39.873371 -75.230492 0 341 22 96
2021-07-13 16:39:39 GMT 39.873280 -75.230461 0 341 23 96
2021-07-13 16:39:38 GMT 39.873169 -75.230423 0 338 22 96
2021-07-13 16:39:37 GMT 39.872978 -75.230309 0 343 22 96
2021-07-13 16:39:35 GMT 39.872879 -75.230278 0 340 22 96
2021-07-13 16:39:34 GMT 39.872768 -75.230247 0 336 21 96
2021-07-13 16:39:32 GMT 39.872608 -75.230171 0 332 23 96
2021-07-13 16:39:30 GMT 39.872421 -75.230049 0 336 20 96
2021-07-13 16:39:28 GMT 39.872250 -75.229958 0 343 18 96
2021-07-13 16:39:27 GMT 39.872189 -75.229927 0 350 18 96
2021-07-13 16:39:26 GMT 39.872108 -75.229889 0 1 18 96
2021-07-13 16:39:25 GMT 39.871948 -75.229874 0 21 16 96
2021-07-13 16:39:23 GMT 39.871880 -75.229889 0 27 16 96
2021-07-13 16:39:22 GMT 39.871811 -75.229927 0 37 15 96
2021-07-13 16:39:20 GMT 39.871651 -75.230019 0 65 13 96
2021-07-13 16:39:19 GMT 39.871609 -75.230072 0 69 15 96
2021-07-13 16:39:17 GMT 39.871571 -75.230232 0 72 17 96
2021-07-13 16:39:16 GMT 39.871540 -75.230324 0 74 17 96
2021-07-13 16:39:15 GMT 39.871510 -75.230431 0 75 16 96
2021-07-13 16:39:13 GMT 39.871460 -75.230598 0 84 19 96
2021-07-13 16:39:12 GMT 39.871429 -75.230690 0 85 20 96
2021-07-13 16:39:11 GMT 39.871422 -75.230911 0 77 20 96
2021-07-13 16:39:09 GMT 39.871399 -75.231178 0 61 18 96
2021-07-13 16:39:07 GMT 39.871391 -75.231277 0 54 20 96
2021-07-13 16:39:06 GMT 39.871330 -75.231407 0 50 17 96
2021-07-13 16:39:04 GMT 39.871262 -75.231590 0 33 20 96
2021-07-13 16:39:03 GMT 39.871181 -75.231628 0 41 20 96
2021-07-13 16:39:02 GMT 39.871029 -75.231796 0 45 21 96
2021-07-13 16:39:00 GMT 39.870960 -75.231880 0 48 21 96
2021-07-13 16:38:58 GMT 39.870819 -75.232063 0 56 22 96
2021-07-13 16:38:57 GMT 39.870770 -75.232140 0 58 24 96
2021-07-13 16:38:56 GMT 39.870701 -75.232262 0 61 24 96
2021-07-13 16:38:54 GMT 39.870548 -75.232643 0 65 22 96
2021-07-13 16:38:52 GMT 39.870522 -75.232742 0 62 25 96
2021-07-13 16:38:51 GMT 39.870468 -75.232857 0 64 26 96
2021-07-13 16:38:50 GMT 39.870350 -75.233131 0 74 24 96
2021-07-13 16:38:48 GMT 39.870331 -75.233261 0 71 26 96
2021-07-13 16:38:46 GMT 39.870239 -75.233551 0 77 24 96
2021-07-13 16:38:45 GMT 39.870220 -75.233688 0 77 25 96
2021-07-13 16:38:44 GMT 39.870178 -75.233818 0 81 25 96
2021-07-13 16:38:42 GMT 39.870159 -75.234123 0 77 26 96
2021-07-13 16:38:41 GMT 39.870140 -75.234291 0 73 24 96
2021-07-13 16:38:40 GMT 39.870121 -75.234451 0 71 23 96
2021-07-13 16:38:38 GMT 39.870041 -75.234703 0 75 25 96
2021-07-13 16:38:37 GMT 39.870010 -75.234848 0 75 25 96
2021-07-13 16:38:36 GMT 39.869968 -75.234993 0 79 25 96
2021-07-13 16:38:34 GMT 39.869930 -75.235283 0 77 27 96
2021-07-13 16:38:33 GMT 39.869919 -75.235428 0 73 28 96
2021-07-13 16:38:32 GMT 39.869850 -75.235748 0 75 27 96
2021-07-13 16:38:30 GMT 39.869831 -75.235909 0 72 26 96
2021-07-13 16:38:29 GMT 39.869801 -75.236031 0 73 29 96
2021-07-13 16:38:28 GMT 39.869732 -75.236191 0 79 28 96
2021-07-13 16:38:26 GMT 39.869690 -75.236526 0 77 27 96
2021-07-13 16:38:25 GMT 39.869652 -75.236687 0 79 26 96
2021-07-13 16:38:23 GMT 39.869598 -75.236992 0 79 29 96
2021-07-13 16:38:22 GMT 39.869560 -75.237343 0 77 29 96
2021-07-13 16:38:20 GMT 39.869549 -75.237549 0 72 25 96
2021-07-13 16:38:19 GMT 39.869518 -75.237679 0 69 27 96
2021-07-13 16:38:18 GMT 39.869431 -75.237968 0 70 27 96
2021-07-13 16:38:16 GMT 39.869370 -75.238152 0 76 23 96
2021-07-13 16:38:14 GMT 39.869308 -75.238411 0 72 23 96
2021-07-13 16:38:13 GMT 39.869270 -75.238518 0 76 26 96
2021-07-13 16:38:12 GMT 39.869251 -75.238670 0 74 25 96
2021-07-13 16:38:10 GMT 39.869179 -75.238953 0 79 27 96
2021-07-13 16:38:08 GMT 39.869148 -75.239273 0 73 26 96
2021-07-13 16:38:06 GMT 39.869068 -75.239578 0 76 25 96
2021-07-13 16:38:05 GMT 39.869049 -75.239708 0 74 26 96
2021-07-13 16:38:04 GMT 39.868961 -75.240021 0 79 24 96
2021-07-13 16:38:02 GMT 39.868961 -75.240181 0 73 24 96
2021-07-13 16:38:01 GMT 39.868919 -75.240318 0 74 24 96
2021-07-13 16:37:59 GMT 39.868870 -75.240593 0 71 25 96
2021-07-13 16:37:58 GMT 39.868820 -75.240723 0 74 26 96
2021-07-13 16:37:57 GMT 39.868790 -75.240883 0 75 25 96
2021-07-13 16:37:55 GMT 39.868721 -75.241158 0 77 26 96
2021-07-13 16:37:54 GMT 39.868679 -75.241318 0 79 25 96
2021-07-13 16:37:53 GMT 39.868671 -75.241470 0 77 26 96
2021-07-13 16:37:51 GMT 39.868629 -75.241768 0 76 27 96
2021-07-13 16:37:50 GMT 39.868622 -75.241913 0 72 28 96
2021-07-13 16:37:49 GMT 39.868549 -75.242233 0 72 30 96
2021-07-13 16:37:47 GMT 39.868500 -75.242401 0 74 29 96
2021-07-13 16:37:45 GMT 39.868431 -75.242737 0 76 29 96
2021-07-13 16:37:44 GMT 39.868359 -75.243057 0 77 30 96
2021-07-13 16:37:42 GMT 39.868351 -75.243248 0 75 27 96
2021-07-13 16:37:41 GMT 39.868290 -75.243584 0 73 28 96
2021-07-13 16:37:40 GMT 39.868240 -75.243729 0 75 28 96
2021-07-13 16:37:38 GMT 39.868221 -75.243889 0 73 29 96
2021-07-13 16:37:37 GMT 39.868179 -75.244057 0 73 28 96
2021-07-13 16:37:35 GMT 39.868111 -75.244370 0 75 31 96
2021-07-13 16:37:34 GMT 39.868061 -75.244560 0 75 28 96
2021-07-13 16:37:32 GMT 39.868000 -75.244911 0 73 28 96
2021-07-13 16:37:31 GMT 39.867970 -75.245071 0 72 28 96
2021-07-13 16:37:30 GMT 39.867920 -75.245232 0 77 28 96
2021-07-13 16:37:28 GMT 39.867870 -75.245567 0 75 29 96
2021-07-13 16:37:27 GMT 39.867828 -75.245728 0 76 29 96
2021-07-13 16:37:25 GMT 39.867760 -75.246078 0 75 28 96
2021-07-13 16:37:24 GMT 39.867741 -75.246239 0 73 30 96
2021-07-13 16:37:22 GMT 39.867661 -75.246582 0 73 28 96
2021-07-13 16:37:21 GMT 39.867611 -75.246727 0 77 29 96
2021-07-13 16:37:20 GMT 39.867599 -75.246910 0 74 29 96
2021-07-13 16:37:18 GMT 39.867519 -75.247231 0 76 29 96
2021-07-13 16:37:17 GMT 39.867481 -75.247398 0 77 29 96
2021-07-13 16:37:15 GMT 39.867420 -75.247742 0 77 28 96
2021-07-13 16:37:14 GMT 39.867390 -75.247917 0 77 27 96
2021-07-13 16:37:13 GMT 39.867329 -75.248230 0 76 28 96
2021-07-13 16:37:11 GMT 39.867290 -75.248383 0 77 29 96
2021-07-13 16:37:10 GMT 39.867279 -75.248543 0 74 30 96
2021-07-13 16:37:08 GMT 39.867199 -75.248894 0 76 28 96
2021-07-13 16:37:07 GMT 39.867161 -75.249046 0 77 28 96
2021-07-13 16:37:06 GMT 39.867142 -75.249207 0 76 28 96
2021-07-13 16:37:05 GMT 39.867100 -75.249542 0 70 28 96
2021-07-13 16:37:03 GMT 39.867081 -75.249702 0 66 28 96
2021-07-13 16:37:02 GMT 39.867031 -75.249863 0 68 29 96
2021-07-13 16:37:01 GMT 39.866901 -75.250168 0 77 28 96
2021-07-13 16:36:59 GMT 39.866840 -75.250488 0 69 29 96
2021-07-13 16:36:57 GMT 39.866821 -75.250687 0 61 28 96
2021-07-13 16:36:56 GMT 39.866772 -75.250839 0 57 29 96
2021-07-13 16:36:55 GMT 39.866650 -75.251137 0 51 32 96
2021-07-13 16:36:53 GMT 39.866562 -75.251282 0 51 32 96
2021-07-13 16:36:52 GMT 39.866459 -75.251442 0 50 32 96
2021-07-13 16:36:50 GMT 39.866299 -75.251740 0 45 35 96
2021-07-13 16:36:49 GMT 39.866180 -75.251907 0 46 35 96
2021-07-13 16:36:48 GMT 39.866009 -75.252197 0 46 40 96
2021-07-13 16:36:46 GMT 39.865849 -75.252380 0 51 38 96
2021-07-13 16:36:44 GMT 39.865631 -75.252724 0 57 39 96
2021-07-13 16:36:43 GMT 39.865520 -75.252899 0 62 41 96
2021-07-13 16:36:42 GMT 39.865398 -75.253143 0 65 40 96
2021-07-13 16:36:41 GMT 39.865250 -75.253601 0 69 43 96
2021-07-13 16:36:39 GMT 39.865162 -75.253838 0 71 43 96
2021-07-13 16:36:37 GMT 39.865009 -75.254341 0 74 48 96
2021-07-13 16:36:36 GMT 39.864971 -75.254608 0 73 51 96
2021-07-13 16:36:35 GMT 39.864891 -75.254898 0 75 53 96
2021-07-13 16:36:33 GMT 39.864750 -75.255508 0 76 57 96
2021-07-13 16:36:32 GMT 39.864700 -75.255836 0 76 60 96
2021-07-13 16:36:31 GMT 39.864571 -75.256538 0 75 66 96
2021-07-13 16:36:29 GMT 39.864491 -75.256912 0 75 68 96
2021-07-13 16:36:28 GMT 39.864422 -75.257278 0 74 72 96
2021-07-13 16:36:26 GMT 39.864250 -75.258133 0 74 73 96
2021-07-13 16:36:25 GMT 39.864140 -75.258568 0 75 74 96
2021-07-13 16:36:24 GMT 39.864059 -75.259003 0 75 75 96
2021-07-13 16:36:22 GMT 39.863880 -75.259850 0 75 82 96
2021-07-13 16:36:21 GMT 39.863789 -75.260353 0 75 83 96
2021-07-13 16:36:19 GMT 39.863609 -75.261299 -250 75 89 96
2021-07-13 16:36:18 GMT 39.863392 -75.262321 -250 75 95 96
2021-07-13 16:36:16 GMT 39.863300 -75.262863 -250 75 99 96
2021-07-13 16:36:15 GMT 39.863190 -75.263412 -250 74 102 96
2021-07-13 16:36:14 GMT 39.863079 -75.264038 -250 74 101 96
2021-07-13 16:36:12 GMT 39.862831 -75.265167 -250 74 108 96
2021-07-13 16:36:11 GMT 39.862679 -75.265808 -250 75 109 96
2021-07-13 16:36:10 GMT 39.862438 -75.267059 -250 75 114 96
2021-07-13 16:36:08 GMT 39.862309 -75.267700 -250 75 117 96
2021-07-13 16:36:06 GMT 39.862041 -75.269073 -250 75 120 -640
2021-07-13 16:36:04 GMT 39.861759 -75.270447 -250 76 126 -640
2021-07-13 16:36:03 GMT 39.861610 -75.271149 -250 76 126 -640
2021-07-13 16:36:02 GMT 39.861481 -75.271851 -225 76 132 -640
2021-07-13 16:36:00 GMT 39.861191 -75.273331 -200 77 140 -640
2021-07-13 16:35:59 GMT 39.861061 -75.274109 -200 76 142 -640
2021-07-13 16:35:58 GMT 39.860729 -75.275818 -175 76 138 -640
2021-07-13 16:35:56 GMT 39.860580 -75.276772 -150 74 120 -640
2021-07-13 16:35:55 GMT 39.860458 -75.277481 -150 72 119 -640
2021-07-13 16:35:53 GMT 39.860180 -75.278778 -100 72 131 -640
2021-07-13 16:35:52 GMT 39.859970 -75.279510 -100 75 131 -640
2021-07-13 16:35:50 GMT 39.859631 -75.281067 -75 76 128 -640
2021-07-13 16:35:49 GMT 39.859509 -75.281853 -75 74 127 -640
2021-07-13 16:35:48 GMT 39.859371 -75.282539 -50 73 131 -640
2021-07-13 16:35:46 GMT 39.859051 -75.284019 0 75 130 -480
2021-07-13 16:35:45 GMT 39.858879 -75.284760 0 77 131 -480
2021-07-13 16:35:43 GMT 39.858631 -75.286339 0 73 130 -480
2021-07-13 16:35:42 GMT 39.858421 -75.287109 0 75 129 -480
2021-07-13 16:35:40 GMT 39.858082 -75.288712 25 76 122 -480
2021-07-13 16:35:39 GMT 39.857979 -75.289368 25 75 126 -480
2021-07-13 16:35:38 GMT 39.857800 -75.290024 50 77 131 -480
2021-07-13 16:35:36 GMT 39.857510 -75.291641 75 77 125 -480
2021-07-13 16:35:35 GMT 39.857422 -75.292343 75 75 128 -480
2021-07-13 16:35:34 GMT 39.857079 -75.293777 200 78 131 -480
2021-07-13 16:35:32 GMT 39.856979 -75.294594 200 76 129 -480
2021-07-13 16:35:31 GMT 39.856861 -75.295303 200 75 132 -480
2021-07-13 16:35:29 GMT 39.856522 -75.296806 200 77 133 -480
2021-07-13 16:35:28 GMT 39.856361 -75.297638 200 78 130 -480
2021-07-13 16:35:26 GMT 39.855999 -75.299911 200 74 127 -480
2021-07-13 16:35:24 GMT 39.855862 -75.300583 200 74 132 -480
2021-07-13 16:35:23 GMT 39.855530 -75.302139 200 75 128 -480
2021-07-13 16:35:21 GMT 39.855358 -75.302887 300 75 128 -480
2021-07-13 16:35:20 GMT 39.855221 -75.303619 300 75 129 -480
2021-07-13 16:35:18 GMT 39.854912 -75.305069 300 75 130 -480
2021-07-13 16:35:17 GMT 39.854622 -75.306549 300 75 132 -480
2021-07-13 16:35:15 GMT 39.854450 -75.307381 300 75 129 -480
2021-07-13 16:35:14 GMT 39.854301 -75.308182 300 75 127 -480
2021-07-13 16:35:13 GMT 39.854012 -75.309593 400 76 132 -480
2021-07-13 16:35:11 GMT 39.853851 -75.310379 400 76 131 -480
2021-07-13 16:35:09 GMT 39.853451 -75.312653 400 75 133 -480
2021-07-13 16:35:07 GMT 39.853271 -75.313461 500 76 131 -480
2021-07-13 16:35:06 GMT 39.853111 -75.314209 500 76 132 -480
2021-07-13 16:35:04 GMT 39.852829 -75.315742 500 76 132 -480
2021-07-13 16:35:03 GMT 39.852692 -75.316513 500 76 132 -480
2021-07-13 16:35:01 GMT 39.852402 -75.318062 500 76 131 -480
2021-07-13 16:35:00 GMT 39.852249 -75.318848 500 76 130 -480
2021-07-13 16:34:58 GMT 39.851952 -75.320358 500 76 131 -480
2021-07-13 16:34:57 GMT 39.851810 -75.321091 500 76 132 -480
2021-07-13 16:34:56 GMT 39.851509 -75.322693 500 76 130 -480
2021-07-13 16:34:54 GMT 39.851379 -75.323418 500 75 131 -480
2021-07-13 16:34:53 GMT 39.851101 -75.324883 700 75 135 -480
2021-07-13 16:34:50 GMT 39.850811 -75.326462 700 74 135 -480
2021-07-13 16:34:49 GMT 39.850639 -75.327209 700 75 137 -480
2021-07-13 16:34:48 GMT 39.850311 -75.328842 700 74 135 -480
2021-07-13 16:34:46 GMT 39.850159 -75.329628 700 74 135 -864
2021-07-13 16:34:45 GMT 39.850010 -75.330368 700 74 137 -864
2021-07-13 16:34:43 GMT 39.849659 -75.331963 700 74 136 -864
2021-07-13 16:34:42 GMT 39.849468 -75.332802 700 74 133 -864
2021-07-13 16:34:40 GMT 39.849159 -75.334290 700 74 139 -864
2021-07-13 16:34:39 GMT 39.848980 -75.335068 800 74 139 -864
2021-07-13 16:34:38 GMT 39.848789 -75.335892 800 75 139 -864
2021-07-13 16:34:37 GMT 39.848652 -75.336639 800 74 143 -864
2021-07-13 16:34:35 GMT 39.848320 -75.338249 800 74 145 -864
2021-07-13 16:34:34 GMT 39.848129 -75.339119 800 74 144 -864
2021-07-13 16:34:33 GMT 39.847950 -75.339920 800 75 145 -864
2021-07-13 16:34:31 GMT 39.847610 -75.341583 800 74 147 -864
2021-07-13 16:34:30 GMT 39.847431 -75.342392 900 75 149 -864
2021-07-13 16:34:29 GMT 39.847061 -75.344193 900 75 145 -864
2021-07-13 16:34:27 GMT 39.846882 -75.345062 900 75 144 -864
2021-07-13 16:34:26 GMT 39.846531 -75.346680 900 75 151 -864
2021-07-13 16:34:24 GMT 39.846371 -75.347458 900 75 156 -864
2021-07-13 16:34:23 GMT 39.846210 -75.348389 900 75 155 -864
2021-07-13 16:34:21 GMT 39.845860 -75.350121 1,100 75 159 -864
2021-07-13 16:34:20 GMT 39.845680 -75.351089 1,100 75 156 -864
2021-07-13 16:34:19 GMT 39.845490 -75.352028 1,100 75 156 -864
2021-07-13 16:34:17 GMT 39.845112 -75.353851 1,100 75 157 -864
2021-07-13 16:34:16 GMT 39.844929 -75.354752 1,100 75 158 -864
2021-07-13 16:34:14 GMT 39.844551 -75.356560 1,100 75 162 -864
2021-07-13 16:34:13 GMT 39.844360 -75.357529 1,100 74 162 -864
2021-07-13 16:34:12 GMT 39.844181 -75.358421 1,100 75 166 -864
2021-07-13 16:34:10 GMT 39.843769 -75.360382 1,100 75 166 -864
2021-07-13 16:34:09 GMT 39.843601 -75.361221 1,100 75 174 -864
2021-07-13 16:34:08 GMT 39.843189 -75.363182 1,300 75 178 -864
2021-07-13 16:34:06 GMT 39.842972 -75.364197 1,300 75 178 -864
2021-07-13 16:34:05 GMT 39.842758 -75.365303 1,300 75 174 -864
2021-07-13 16:34:04 GMT 39.842331 -75.367401 1,300 75 171 -864
2021-07-13 16:34:02 GMT 39.842129 -75.368423 1,300 75 171 -864
2021-07-13 16:34:00 GMT 39.841770 -75.370338 1,300 75 178 -864
2021-07-13 16:33:59 GMT 39.841599 -75.371361 1,300 74 181 -864
2021-07-13 16:33:58 GMT 39.841370 -75.372429 1,300 74 181 -864
2021-07-13 16:33:56 GMT 39.840912 -75.374603 1,300 75 180 -864
2021-07-13 16:33:55 GMT 39.840721 -75.375526 1,300 75 187 -864
2021-07-13 16:33:54 GMT 39.840488 -75.376587 1,300 75 189 -864
2021-07-13 16:33:50 GMT 39.839729 -75.380554 1,350 75 192 -1024
2021-07-13 16:33:48 GMT 39.839127 -75.383408 1,400 75 192 -1024
2021-07-13 16:33:46 GMT 39.838566 -75.386292 1,475 75 198 -896
2021-07-13 16:33:43 GMT 39.838165 -75.388367 1,475 75 198 -896
2021-07-13 16:33:40 GMT 39.837296 -75.392601 1,550 75 204 -1216
2021-07-13 16:33:37 GMT 39.836800 -75.395203 1,575 75 208 -1152
2021-07-13 16:33:35 GMT 39.836151 -75.398331 1,650 75 211 -640
2021-07-13 16:33:32 GMT 39.835510 -75.401794 1,650 75 214 -960
2021-07-13 16:33:28 GMT 39.834145 -75.408630 1,750 75 216 -1088
2021-07-13 16:33:25 GMT 39.833771 -75.410522 1,775 75 217 -1088
2021-07-13 16:33:23 GMT 39.833313 -75.412903 1,825 75 217 -1088
2021-07-13 16:33:22 GMT 39.833038 -75.414337 1,850 75 218 -1024
2021-07-13 16:33:20 GMT 39.832561 -75.416687 1,875 75 218 -1152
2021-07-13 16:33:19 GMT 39.832283 -75.418274 1,900 75 218 -1088
2021-07-13 16:33:17 GMT 39.831772 -75.420715 1,925 75 219 -1152
2021-07-13 16:33:15 GMT 39.831352 -75.422852 1,950 75 219 -1152
2021-07-13 16:33:14 GMT 39.831024 -75.424667 2,000 75 220 -1088
2021-07-13 16:33:12 GMT 39.830612 -75.426697 2,025 75 220 -1088
2021-07-13 16:33:11 GMT 39.830139 -75.429016 2,050 75 221 -1152
2021-07-13 16:33:10 GMT 39.829880 -75.430275 2,075 75 222 -1088
2021-07-13 16:33:08 GMT 39.829376 -75.432907 2,100 75 222 -1088
2021-07-13 16:33:07 GMT 39.828827 -75.435471 2,150 74 223 -1088
2021-07-13 16:33:04 GMT 39.828278 -75.438042 2,175 74 223 -1088
2021-07-13 16:33:02 GMT 39.827866 -75.440132 2,200 75 224 -1216
2021-07-13 16:33:01 GMT 39.827488 -75.441956 2,250 75 224 -1216
2021-07-13 16:33:00 GMT 39.827225 -75.443291 2,250 75 225 -1280
2021-07-13 16:32:58 GMT 39.826584 -75.446396 2,350 75 226 -1152
2021-07-13 16:32:55 GMT 39.826080 -75.449028 2,350 75 226 -1088
2021-07-13 16:32:53 GMT 39.825531 -75.451653 2,375 75 227 -1152
2021-07-13 16:32:52 GMT 39.824890 -75.454819 2,425 75 227 -1152
2021-07-13 16:32:49 GMT 39.824478 -75.456970 2,450 75 227 -1152
2021-07-13 16:32:48 GMT 39.823746 -75.460670 2,525 75 227 -1216
2021-07-13 16:32:45 GMT 39.823483 -75.461975 2,525 75 228 -1152
2021-07-13 16:32:42 GMT 39.822601 -75.466248 2,600 75 228 -1408
2021-07-13 16:32:38 GMT 39.821529 -75.471558 2,700 75 228 -1216
2021-07-13 16:32:37 GMT 39.821274 -75.472847 2,700 75 228 -1216
2021-07-13 16:32:36 GMT 39.820038 -75.478943 2,875 75 228 -1280
2021-07-13 16:32:32 GMT 39.820038 -75.478943 2,875 75 228 -1216
2021-07-13 16:32:29 GMT 39.819031 -75.484016 2,875 75 228 -1280
2021-07-13 16:32:28 GMT 39.818710 -75.485565 2,900 75 228 -1216
2021-07-13 16:32:27 GMT 39.818409 -75.486938 2,925 75 228 -1216
2021-07-13 16:32:25 GMT 39.817703 -75.490341 2,975 75 228 -1216
2021-07-13 16:32:23 GMT 39.817341 -75.492249 3,000 75 228 -1216
2021-07-13 16:32:20 GMT 39.816559 -75.496254 3,075 76 228 -1216
2021-07-13 16:32:17 GMT 39.815990 -75.499146 3,125 76 229 -1216
2021-07-13 16:32:16 GMT 39.815735 -75.500496 3,125 76 228 -1216
2021-07-13 16:32:14 GMT 39.815369 -75.502647 3,175 76 228 -1216
2021-07-13 16:32:12 GMT 39.814728 -75.506287 3,225 77 229 -1152
2021-07-13 16:32:10 GMT 39.814270 -75.508972 3,250 77 229 -1088
2021-07-13 16:32:08 GMT 39.813812 -75.511719 3,300 78 229 -1152
2021-07-13 16:32:07 GMT 39.813522 -75.513672 3,325 78 229 -1152
2021-07-13 16:32:05 GMT 39.813103 -75.516357 3,350 78 229 -1152
2021-07-13 16:32:01 GMT 39.812313 -75.521118 3,425 77 230 -960
2021-07-13 16:32:00 GMT 39.812126 -75.522278 3,425 77 230 -896
2021-07-13 16:31:59 GMT 39.811615 -75.525276 3,450 76 230 -896
2021-07-13 16:31:56 GMT 39.811157 -75.527901 3,575 76 231 -960
2021-07-13 16:31:51 GMT 39.809937 -75.534180 3,575 75 231 -1024
2021-07-13 16:31:50 GMT 39.809555 -75.536018 3,575 74 232 -832
2021-07-13 16:31:48 GMT 39.808365 -75.541336 3,625 71 232 -832
2021-07-13 16:31:46 GMT 39.808365 -75.541336 3,625 71 232 -832
2021-07-13 16:31:45 GMT 39.808029 -75.542664 3,650 64 231 -576
2021-07-13 16:31:43 GMT 39.807285 -75.545288 3,675 64 231 -576
2021-07-13 16:31:40 GMT 39.806026 -75.548950 3,700 64 231 -576
2021-07-13 16:31:37 GMT 39.804119 -75.553284 3,725 51 232 -128
2021-07-13 16:31:35 GMT 39.802910 -75.555542 3,725 51 232 -128
2021-07-13 16:31:33 GMT 39.801956 -75.557098 3,725 42 233 64
2021-07-13 16:31:32 GMT 39.800629 -75.558960 3,725 42 233 64
2021-07-13 16:31:30 GMT 39.799091 -75.560852 3,725 41 233 192
2021-07-13 16:31:28 GMT 39.796921 -75.563248 3,725 34 234 64
2021-07-13 16:31:25 GMT 39.795868 -75.564262 3,725 33 234 0
2021-07-13 16:31:24 GMT 39.795368 -75.564758 3,725 33 234 0
2021-07-13 16:31:23 GMT 39.794495 -75.565514 3,725 33 234 0
2021-07-13 16:31:22 GMT 39.792854 -75.566956 3,725 30 234 64
2021-07-13 16:31:21 GMT 39.791782 -75.567810 3,725 30 234 64
2021-07-13 16:31:19 GMT 39.789127 -75.569885 3,725 30 234 0
2021-07-13 16:31:17 GMT 39.788010 -75.570740 3,725 30 237 128
2021-07-13 16:31:16 GMT 39.786301 -75.572021 3,700 30 237 64
2021-07-13 16:31:12 GMT 39.783447 -75.574219 3,700 30 241 0
2021-07-13 16:31:11 GMT 39.782288 -75.575073 3,700 30 241 0
2021-07-13 16:31:10 GMT 39.781311 -75.575790 3,700 30 242 -64
2021-07-13 16:31:08 GMT 39.779957 -75.576843 3,700 30 245 -64
2021-07-13 16:31:07 GMT 39.777420 -75.578835 3,725 30 247 -64
2021-07-13 16:31:06 GMT 39.777420 -75.578835 3,725 30 247 -64
2021-07-13 16:31:05 GMT 39.776230 -75.579727 3,725 30 249 -64
2021-07-13 16:31:04 GMT 39.772511 -75.582642 3,725 31 252 -64
2021-07-13 16:31:01 GMT 39.772511 -75.582642 3,725 31 253 -192
2021-07-13 16:31:00 GMT 39.771515 -75.583366 3,725 31 253 -192
2021-07-13 16:30:58 GMT 39.769501 -75.584984 3,725 31 256 -192
2021-07-13 16:30:55 GMT 39.766983 -75.586952 3,725 31 258 -256
2021-07-13 16:30:51 GMT 39.759800 -75.592834 3,775 32 266 -192
2021-07-13 16:30:48 GMT 39.759800 -75.592834 3,775 32 267 -192
2021-07-13 16:30:46 GMT 39.757706 -75.594543 3,775 32 267 -192
2021-07-13 16:30:44 GMT 39.754028 -75.597595 3,800 32 272 -384
2021-07-13 16:30:40 GMT 39.750957 -75.600159 3,825 10 281 -1664
2021-07-13 16:30:38 GMT 39.747650 -75.602966 4,500 10 281 -1664
2021-07-13 16:30:35 GMT 39.745651 -75.604683 4,500 10 281 -1664
2021-07-13 16:30:32 GMT 39.742310 -75.607552 4,000 33 275 -1472
2021-07-13 16:30:29 GMT 39.738373 -75.610893 4,150 33 278 -1600
2021-07-13 16:30:25 GMT 39.734756 -75.614014 4,150 33 278 -1600
2021-07-13 16:30:20 GMT 39.729588 -75.618469 4,300 32 279 -1792
2021-07-13 16:30:18 GMT 39.727249 -75.620445 4,725 32 279 -1792
2021-07-13 16:30:14 GMT 39.723072 -75.623901 4,475 31 279 -1792
2021-07-13 16:30:11 GMT 39.719330 -75.626900 4,575 31 279 -1984
2021-07-13 16:30:08 GMT 39.716629 -75.628990 4,650 28 279 -1664
2021-07-13 16:30:06 GMT 39.713715 -75.631165 4,675 28 279 -1664
2021-07-13 16:30:03 GMT 39.710548 -75.633362 4,800 11 282 -1856
2021-07-13 16:30:02 GMT 39.708893 -75.634483 4,850 11 282 -1856
2021-07-13 16:29:54 GMT 39.700073 -75.639404 5,050 20 281 -1792
2021-07-13 16:29:48 GMT 39.693092 -75.642029 5,225 12 279 -1792
2021-07-13 16:29:45 GMT 39.686993 -75.643616 5,375 10 280 -1728
2021-07-13 16:29:42 GMT 39.685226 -75.644096 5,400 10 280 -1664
2021-07-13 16:29:41 GMT 39.682896 -75.644653 5,475 10 281 -1728
2021-07-13 16:29:39 GMT 39.680988 -75.645142 5,500 10 281 -1728
2021-07-13 16:29:36 GMT 39.677776 -75.645874 5,575 10 282 -1728
2021-07-13 16:29:35 GMT 39.676529 -75.646240 5,600 10 282 -1728
2021-07-13 16:29:33 GMT 39.673965 -75.646843 5,650 11 282 -1792
2021-07-13 16:29:31 GMT 39.667786 -75.648453 5,800 11 282 -1856
2021-07-13 16:29:29 GMT 39.667786 -75.648453 5,800 11 282 -1984
2021-07-13 16:29:26 GMT 39.664974 -75.649170 5,875 11 282 -1984
2021-07-13 16:29:24 GMT 39.658539 -75.650841 6,050 11 282 -1856
2021-07-13 16:29:22 GMT 39.658539 -75.650841 6,050 11 282 -1856
2021-07-13 16:29:20 GMT 39.654053 -75.651978 6,125 11 283 -1664
2021-07-13 16:29:13 GMT 39.644444 -75.654480 6,350 11 283 -1600
2021-07-13 16:29:11 GMT 39.644444 -75.654480 6,375 11 284 -1280
2021-07-13 16:29:08 GMT 39.640301 -75.655579 6,450 11 284 -1152
2021-07-13 16:29:04 GMT 39.635376 -75.656868 6,525 11 285 -2112
2021-07-13 16:29:01 GMT 39.631454 -75.657898 6,625 11 286 -1984
2021-07-13 16:28:58 GMT 39.628384 -75.658752 6,675 11 286 -1920
2021-07-13 16:28:55 GMT 39.624985 -75.659676 6,775 11 286 -1664
2021-07-13 16:28:54 GMT 39.623680 -75.660034 6,800 11 286 -1664
2021-07-13 16:28:52 GMT 39.619812 -75.661110 6,950 12 286 -1856
2021-07-13 16:28:49 GMT 39.616932 -75.661865 6,950 12 286 -1920
2021-07-13 16:28:47 GMT 39.614639 -75.662483 7,100 12 286 -1984
2021-07-13 16:28:42 GMT 39.606857 -75.664635 7,200 12 286 -1856
2021-07-13 16:28:38 GMT 39.602966 -75.665710 7,325 12 286 -1792
2021-07-13 16:28:35 GMT 39.597519 -75.667198 7,450 11 287 -1664
2021-07-13 16:28:32 GMT 39.594120 -75.668152 7,500 11 287 -1728
2021-07-13 16:28:29 GMT 39.590584 -75.669067 7,575 11 288 -1536
2021-07-13 16:28:26 GMT 39.587372 -75.669983 7,650 11 287 -1600
2021-07-13 16:28:23 GMT 39.583420 -75.671021 7,725 11 288 -1536
2021-07-13 16:28:21 GMT 39.580811 -75.671677 7,775 11 290 -1408
2021-07-13 16:28:20 GMT 39.578201 -75.672394 7,875 11 290 -1408
2021-07-13 16:28:17 GMT 39.572891 -75.673706 7,900 11 292 -1344
2021-07-13 16:28:15 GMT 39.571545 -75.674072 7,925 11 293 -1344
2021-07-13 16:28:12 GMT 39.567581 -75.675079 8,000 10 295 -1472
2021-07-13 16:28:10 GMT 39.564880 -75.675797 8,050 10 295 -1472
2021-07-13 16:28:09 GMT 39.563828 -75.676041 8,075 10 296 -1664
2021-07-13 16:28:07 GMT 39.561394 -75.676636 8,175 10 296 -1664
2021-07-13 16:28:04 GMT 39.556274 -75.677948 8,600 10 297 -2048
2021-07-13 16:28:03 GMT 39.556274 -75.677948 8,600 10 297 -2112
2021-07-13 16:28:00 GMT 39.552734 -75.678772 8,575 10 297 -2176
2021-07-13 16:27:56 GMT 39.546825 -75.680237 8,575 10 297 -2112
2021-07-13 16:27:53 GMT 39.541935 -75.681458 8,600 10 297 -2112
2021-07-13 16:27:51 GMT 39.539234 -75.682129 8,675 10 297 -2112
2021-07-13 16:27:49 GMT 39.536774 -75.682724 8,750 10 297 -2048
2021-07-13 16:27:48 GMT 39.535172 -75.683083 8,775 10 298 -2048
2021-07-13 16:27:47 GMT 39.533791 -75.683411 8,825 10 298 -1984
2021-07-13 16:27:45 GMT 39.531090 -75.684082 8,875 10 298 -1920
2021-07-13 16:27:41 GMT 39.527023 -75.685051 8,975 10 299 -1984
2021-07-13 16:27:40 GMT 39.525642 -75.685425 9,025 10 299 -1984
2021-07-13 16:27:36 GMT 39.520477 -75.686668 9,150 10 300 -1856
2021-07-13 16:27:35 GMT 39.518829 -75.687080 9,175 10 300 -1856
2021-07-13 16:27:33 GMT 39.516129 -75.687737 9,225 10 300 -1792
2021-07-13 16:27:31 GMT 39.511185 -75.688934 9,375 10 302 -1600
2021-07-13 16:27:28 GMT 39.506512 -75.690063 9,425 10 303 -1408
2021-07-13 16:27:25 GMT 39.505096 -75.690430 9,450 10 304 -1280
2021-07-13 16:27:24 GMT 39.502602 -75.691040 9,475 10 305 -1152
2021-07-13 16:27:22 GMT 39.500244 -75.691620 9,500 10 311 -832
2021-07-13 16:27:20 GMT 39.497620 -75.692261 9,550 10 311 -832
2021-07-13 16:27:19 GMT 39.495338 -75.692810 9,575 10 311 -832
2021-07-13 16:27:17 GMT 39.492542 -75.693481 9,600 10 312 -832
2021-07-13 16:27:16 GMT 39.491089 -75.693832 9,600 10 313 -960
2021-07-13 16:27:14 GMT 39.488541 -75.694458 9,625 10 314 -1024
2021-07-13 16:27:13 GMT 39.487106 -75.694786 9,650 10 315 -1024
2021-07-13 16:27:10 GMT 39.483376 -75.695740 9,700 10 319 -320
2021-07-13 16:27:07 GMT 39.479599 -75.696640 9,725 10 324 0
2021-07-13 16:27:04 GMT 39.475182 -75.697693 9,725 10 330 -64
2021-07-13 16:27:02 GMT 39.472202 -75.698425 9,725 10 330 -64
2021-07-13 16:27:00 GMT 39.468292 -75.699387 9,725 10 331 -128
2021-07-13 16:26:57 GMT 39.464676 -75.700218 9,725 10 336 -256
2021-07-13 16:26:56 GMT 39.456932 -75.702087 9,750 10 339 -256
2021-07-13 16:26:53 GMT 39.456932 -75.702087 9,750 10 343 0
2021-07-13 16:26:52 GMT 39.455383 -75.702431 9,750 10 347 64
2021-07-13 16:26:48 GMT 39.450600 -75.703552 9,725 10 350 64
2021-07-13 16:26:44 GMT 39.443207 -75.705292 9,725 10 354 64
2021-07-13 16:26:39 GMT 39.436111 -75.706963 9,725 10 354 64
2021-07-13 16:26:37 GMT 39.432907 -75.707741 9,725 10 354 64
2021-07-13 16:26:35 GMT 39.429657 -75.708458 9,725 10 355 64
2021-07-13 16:26:34 GMT 39.428024 -75.708862 9,725 10 355 64
2021-07-13 16:26:33 GMT 39.424812 -75.709595 9,725 10 355 64
2021-07-13 16:26:31 GMT 39.423203 -75.710014 9,725 10 355 64
2021-07-13 16:26:30 GMT 39.421551 -75.710388 9,725 10 355 -64
2021-07-13 16:26:29 GMT 39.418625 -75.711029 9,725 10 355 -64
2021-07-13 16:26:26 GMT 39.414230 -75.712105 9,725 10 355 -128
2021-07-13 16:26:25 GMT 39.412811 -75.712402 9,725 10 355 -128
2021-07-13 16:26:23 GMT 39.407639 -75.713593 9,750 10 355 -64
2021-07-13 16:26:19 GMT 39.403107 -75.714668 9,750 10 355 128
2021-07-13 16:26:17 GMT 39.401138 -75.715088 9,725 10 355 64
2021-07-13 16:26:15 GMT 39.395622 -75.716370 9,725 10 356 64
2021-07-13 16:26:12 GMT 39.392075 -75.717178 9,725 10 356 128
2021-07-13 16:26:08 GMT 39.385242 -75.718750 9,725 10 356 0
2021-07-13 16:26:04 GMT 39.376770 -75.720703 9,725 10 356 -64
2021-07-13 16:26:01 GMT 39.374496 -75.721237 9,725 10 356 -64
2021-07-13 16:25:59 GMT 39.371246 -75.721954 9,725 10 356 -64
2021-07-13 16:25:58 GMT 39.368298 -75.722656 9,725 10 356 -64
2021-07-13 16:25:55 GMT 39.363419 -75.723801 9,725 10 356 64
2021-07-13 16:25:54 GMT 39.359825 -75.724609 9,725 10 356 0
2021-07-13 16:25:51 GMT 39.357265 -75.725220 9,725 10 356 0
2021-07-13 16:25:49 GMT 39.353352 -75.726135 9,725 10 356 0
2021-07-13 16:25:47 GMT 39.348450 -75.727264 9,725 10 356 -64
2021-07-13 16:25:43 GMT 39.345200 -75.727982 9,725 10 356 0
2021-07-13 16:25:41 GMT 39.341949 -75.728760 9,725 10 356 -64
2021-07-13 16:25:40 GMT 39.339668 -75.729309 9,725 10 356 -64
2021-07-13 16:25:39 GMT 39.335449 -75.730255 9,725 10 356 0
2021-07-13 16:25:34 GMT 39.330589 -75.731384 9,725 10 355 64
2021-07-13 16:25:32 GMT 39.326679 -75.732300 9,725 10 355 0
2021-07-13 16:25:31 GMT 39.324417 -75.732819 9,725 10 355 64
2021-07-13 16:25:29 GMT 39.321167 -75.733536 9,725 10 355 64
2021-07-13 16:25:27 GMT 39.317917 -75.734314 9,725 10 355 0
2021-07-13 16:25:26 GMT 39.316299 -75.734680 9,725 10 355 0
2021-07-13 16:25:25 GMT 39.314667 -75.735031 9,725 10 355 0
2021-07-13 16:25:23 GMT 39.311783 -75.735718 9,725 10 355 0
2021-07-13 16:25:21 GMT 39.307571 -75.736702 9,725 10 354 0
2021-07-13 16:25:19 GMT 39.304321 -75.737419 9,725 10 354 0
2021-07-13 16:25:17 GMT 39.302704 -75.737793 9,725 10 354 0
2021-07-13 16:25:16 GMT 39.300751 -75.738220 9,725 10 354 64
2021-07-13 16:25:15 GMT 39.299149 -75.738609 9,725 10 354 64
2021-07-13 16:25:14 GMT 39.295898 -75.739326 9,725 10 354 64
2021-07-13 16:25:10 GMT 39.292053 -75.740227 9,725 10 354 128
2021-07-13 16:25:08 GMT 39.288803 -75.740997 9,725 10 353 128
2021-07-13 16:25:06 GMT 39.283943 -75.742126 9,700 10 353 64
2021-07-13 16:25:03 GMT 39.279144 -75.743271 9,700 10 353 -64
2021-07-13 16:25:02 GMT 39.277176 -75.743690 9,700 10 353 -64
2021-07-13 16:25:01 GMT 39.275894 -75.743988 9,700 10 352 -128
2021-07-13 16:25:00 GMT 39.269791 -75.745483 9,725 10 353 -128
2021-07-13 16:24:58 GMT 39.269791 -75.745483 9,725 10 353 -192
2021-07-13 16:24:55 GMT 39.265640 -75.746429 9,725 10 351 -128
2021-07-13 16:24:53 GMT 39.262390 -75.747208 9,725 10 352 -128
2021-07-13 16:24:51 GMT 39.257904 -75.748283 9,725 10 353 -128
2021-07-13 16:24:49 GMT 39.257904 -75.748283 9,725 9 353 -512
2021-07-13 16:24:46 GMT 39.252426 -75.749512 9,750 9 353 -512
2021-07-13 16:24:44 GMT 39.248886 -75.750252 9,775 8 350 -576
2021-07-13 16:24:41 GMT 39.244354 -75.751152 9,800 8 350 -576
2021-07-13 16:24:40 GMT 39.241150 -75.751808 9,825 8 350 -448
2021-07-13 16:24:35 GMT 39.235016 -75.752991 9,850 9 351 -768
2021-07-13 16:24:33 GMT 39.227383 -75.755127 9,950 16 353 -1536
2021-07-13 16:24:31 GMT 39.227383 -75.755127 9,950 17 354 -1664
2021-07-13 16:24:28 GMT 39.224216 -75.756348 10,000 19 354 -1600
2021-07-13 16:24:25 GMT 39.219635 -75.758553 10,075 23 356 -1536
2021-07-13 16:24:24 GMT 39.218121 -75.759399 10,100 26 356 -1472
2021-07-13 16:24:20 GMT 39.212254 -75.763367 10,200 33 358 -1408
2021-07-13 16:24:18 GMT 39.208900 -75.766174 10,250 38 360 -1472
2021-07-13 16:24:16 GMT 39.205948 -75.768944 10,300 38 360 -1472
2021-07-13 16:24:15 GMT 39.203640 -75.771423 10,350 44 362 -1728
2021-07-13 16:24:13 GMT 39.202423 -75.772881 10,375 44 362 -1728
2021-07-13 16:24:12 GMT 39.201221 -75.774353 10,425 47 362 -1728
2021-07-13 16:24:10 GMT 39.198845 -75.777466 10,475 47 362 -1792
2021-07-13 16:24:06 GMT 39.194378 -75.783875 10,625 50 364 -1728
2021-07-13 16:24:04 GMT 39.191769 -75.787903 10,650 50 365 -1856
2021-07-13 16:24:02 GMT 39.186138 -75.796570 10,925 50 366 -1920
2021-07-13 16:23:59 GMT 39.186138 -75.796570 10,925 50 366 -1920
2021-07-13 16:23:55 GMT 39.181343 -75.803955 10,950 50 367 -2048
2021-07-13 16:23:53 GMT 39.179810 -75.806259 11,000 50 367 -2048
2021-07-13 16:23:51 GMT 39.175003 -75.813667 11,075 50 369 -2048
2021-07-13 16:23:49 GMT 39.175003 -75.813667 11,350 50 369 -2048
2021-07-13 16:23:45 GMT 39.170403 -75.820740 11,350 50 369 -2048
2021-07-13 16:23:41 GMT 39.167130 -75.825783 11,400 50 369 -2048
2021-07-13 16:23:40 GMT 39.166027 -75.827515 11,450 50 369 -1984
2021-07-13 16:23:38 GMT 39.162071 -75.833557 11,550 50 370 -2048
2021-07-13 16:23:36 GMT 39.162071 -75.833557 11,550 50 371 -2048
2021-07-13 16:23:35 GMT 39.160538 -75.835938 11,600 50 371 -1984
2021-07-13 16:23:33 GMT 39.158207 -75.839478 11,675 50 371 -2048
2021-07-13 16:23:31 GMT 39.156555 -75.842026 11,725 50 371 -2112
2021-07-13 16:23:30 GMT 39.151657 -75.849487 11,800 50 371 -2048
2021-07-13 16:23:28 GMT 39.151657 -75.849487 11,900 49 372 -2048
2021-07-13 16:23:25 GMT 39.149315 -75.853149 11,900 49 372 -2048
2021-07-13 16:23:23 GMT 39.146988 -75.856628 12,050 49 373 -1984
2021-07-13 16:23:21 GMT 39.144562 -75.860359 12,075 49 373 -1984
2021-07-13 16:23:19 GMT 39.142982 -75.862732 12,125 49 373 -1984
2021-07-13 16:23:18 GMT 39.140377 -75.866760 12,200 49 374 -2048
2021-07-13 16:23:15 GMT 39.138142 -75.870056 12,250 49 374 -2048
2021-07-13 16:23:13 GMT 39.136459 -75.872597 12,350 49 375 -1984
2021-07-13 16:23:12 GMT 39.133629 -75.876892 12,400 49 375 -2048
2021-07-13 16:23:09 GMT 39.131516 -75.880058 12,475 49 375 -2048
2021-07-13 16:23:07 GMT 39.129227 -75.883461 12,550 49 376 -1984
2021-07-13 16:23:05 GMT 39.124237 -75.890984 12,650 49 377 -2048
2021-07-13 16:23:03 GMT 39.124237 -75.890984 12,700 49 379 -1984
2021-07-13 16:23:01 GMT 39.122406 -75.893738 12,750 49 380 -2048
2021-07-13 16:22:59 GMT 39.119846 -75.897522 12,825 49 382 -2048
2021-07-13 16:22:58 GMT 39.118698 -75.899223 12,850 49 382 -2048
2021-07-13 16:22:56 GMT 39.116501 -75.902512 12,925 49 382 -2112
2021-07-13 16:22:54 GMT 39.113617 -75.906807 13,000 49 384 -2048
2021-07-13 16:22:52 GMT 39.111515 -75.909912 13,075 49 384 -1984
2021-07-13 16:22:49 GMT 39.108948 -75.913734 13,150 49 384 -1984
2021-07-13 16:22:47 GMT 39.105461 -75.918945 13,250 48 385 -1984
2021-07-13 16:22:44 GMT 39.103134 -75.922424 13,300 49 386 -1984
2021-07-13 16:22:43 GMT 39.101486 -75.924843 13,350 49 386 -2048
2021-07-13 16:22:41 GMT 39.099152 -75.928307 13,425 49 387 -2112
2021-07-13 16:22:39 GMT 39.094662 -75.934937 13,550 49 387 -2112
2021-07-13 16:22:37 GMT 39.094662 -75.934937 13,550 49 387 -2112
2021-07-13 16:22:35 GMT 39.092800 -75.937683 13,600 48 388 -2048
2021-07-13 16:22:32 GMT 39.088516 -75.943970 13,725 48 388 -2048
2021-07-13 16:22:31 GMT 39.087341 -75.945679 13,775 48 389 -2112
2021-07-13 16:22:26 GMT 39.080704 -75.955475 13,975 48 391 -2048
2021-07-13 16:22:23 GMT 39.076355 -75.961739 14,075 48 391 -2048
2021-07-13 16:22:20 GMT 39.074226 -75.964844 14,150 48 391 -2048
2021-07-13 16:22:18 GMT 39.071804 -75.968384 14,200 48 392 -2048
2021-07-13 16:22:16 GMT 39.069168 -75.972191 14,275 48 392 -1984
2021-07-13 16:22:15 GMT 39.068207 -75.973625 14,300 48 392 -1984
2021-07-13 16:22:13 GMT 39.065826 -75.977142 14,350 48 392 -2048
2021-07-13 16:22:11 GMT 39.063194 -75.980957 14,450 48 392 -2048
2021-07-13 16:22:10 GMT 39.062218 -75.982361 14,475 48 392 -2112
2021-07-13 16:22:08 GMT 39.059330 -75.986572 14,550 48 391 -2112
2021-07-13 16:22:05 GMT 39.055977 -75.991455 14,775 48 391 -1984
2021-07-13 16:22:02 GMT 39.051910 -75.997444 14,775 48 391 -2112
2021-07-13 16:22:00 GMT 39.049786 -76.000610 14,825 48 391 -1984
2021-07-13 16:21:58 GMT 39.045319 -76.007118 14,950 48 390 -1984
2021-07-13 16:21:55 GMT 39.043594 -76.009705 15,000 48 390 -1920
2021-07-13 16:21:53 GMT 39.042389 -76.011421 15,025 48 390 -1920
2021-07-13 16:21:51 GMT 39.040604 -76.014046 15,075 48 390 -1920
2021-07-13 16:21:50 GMT 39.038799 -76.016663 15,125 48 389 -1920
2021-07-13 16:21:49 GMT 39.037170 -76.019119 15,175 48 389 -1984
2021-07-13 16:21:48 GMT 39.035961 -76.020813 15,200 48 389 -1984
2021-07-13 16:21:47 GMT 39.032654 -76.025696 15,300 48 389 -2048
2021-07-13 16:21:45 GMT 39.032654 -76.025696 15,300 48 387 -2048
2021-07-13 16:21:44 GMT 39.031494 -76.027481 15,325 48 387 -2048
2021-07-13 16:21:41 GMT 39.027695 -76.033035 15,450 48 387 -1984
2021-07-13 16:21:40 GMT 39.026508 -76.034729 15,475 48 386 -2112
2021-07-13 16:21:39 GMT 39.025208 -76.036682 15,525 48 384 -2112
2021-07-13 16:21:38 GMT 39.022739 -76.040283 15,600 48 384 -2112
2021-07-13 16:21:35 GMT 39.020550 -76.043518 15,700 48 383 -2112
2021-07-13 16:21:32 GMT 39.016891 -76.048859 15,775 48 384 -2048
2021-07-13 16:21:31 GMT 39.014557 -76.052261 15,825 48 384 -2048
2021-07-13 16:21:29 GMT 39.013382 -76.054016 15,875 48 385 -2048
2021-07-13 16:21:28 GMT 39.011765 -76.056381 15,925 48 385 -2048
2021-07-13 16:21:26 GMT 39.009384 -76.059845 15,975 48 386 -2048
2021-07-13 16:21:24 GMT 39.007599 -76.062469 16,025 48 386 -2048
2021-07-13 16:21:23 GMT 39.003513 -76.068481 16,125 48 387 -1984
2021-07-13 16:21:21 GMT 39.003513 -76.068481 16,150 48 387 -1984
2021-07-13 16:21:19 GMT 39.001373 -76.071602 16,200 48 388 -2048
2021-07-13 16:21:17 GMT 38.999954 -76.073692 16,250 48 389 -2048
2021-07-13 16:21:16 GMT 38.998993 -76.075066 16,275 48 389 -2048
2021-07-13 16:21:15 GMT 38.997368 -76.077515 16,325 48 389 -2048
2021-07-13 16:21:13 GMT 38.994995 -76.080994 16,400 49 390 -2112
2021-07-13 16:21:12 GMT 38.993774 -76.082771 16,425 49 392 -2048
2021-07-13 16:21:11 GMT 38.991177 -76.086609 16,500 49 392 -2048
2021-07-13 16:21:08 GMT 38.987595 -76.091904 16,600 49 392 -2048
2021-07-13 16:21:06 GMT 38.986267 -76.093880 16,650 49 392 -1984
2021-07-13 16:21:04 GMT 38.983337 -76.098236 16,725 49 394 -1984
2021-07-13 16:21:02 GMT 38.981632 -76.100708 16,775 49 394 -2048
2021-07-13 16:21:00 GMT 38.979259 -76.104248 17,025 49 396 -2048
2021-07-13 16:20:56 GMT 38.972977 -76.113464 17,000 48 397 -1984
2021-07-13 16:20:52 GMT 38.969112 -76.119202 17,125 48 399 -2048
2021-07-13 16:20:47 GMT 38.963516 -76.127373 17,275 48 403 -1984
2021-07-13 16:20:44 GMT 38.960312 -76.132019 17,375 48 401 -2112
2021-07-13 16:20:41 GMT 38.956146 -76.138184 17,475 48 404 -1984
2021-07-13 16:20:39 GMT 38.952446 -76.143555 17,575 48 404 -1984
2021-07-13 16:20:36 GMT 38.950443 -76.146423 17,975 48 406 -1920
2021-07-13 16:20:32 GMT 38.943741 -76.156212 17,825 48 408 -1792
2021-07-13 16:20:29 GMT 38.940994 -76.160217 17,825 48 408 -1792
2021-07-13 16:20:26 GMT 38.936478 -76.166809 17,900 48 410 -1792
2021-07-13 16:20:23 GMT 38.933716 -76.170837 18,025 48 412 -1728
2021-07-13 16:20:19 GMT 38.927914 -76.179321 18,175 48 415 -1856
2021-07-13 16:20:16 GMT 38.923645 -76.185646 18,250 48 415 -1792
2021-07-13 16:20:13 GMT 38.921585 -76.188637 18,325 48 416 -1984
2021-07-13 16:20:10 GMT 38.917007 -76.195320 18,450 48 419 -1856
2021-07-13 16:20:06 GMT 38.911667 -76.203186 18,550 48 420 -1856
2021-07-13 16:20:03 GMT 38.908592 -76.207703 18,675 48 425 -1792
2021-07-13 16:20:00 GMT 38.898514 -76.222427 19,025 48 425 -1792
2021-07-13 16:19:56 GMT 38.898514 -76.222427 18,925 48 427 -1856
2021-07-13 16:19:52 GMT 38.894070 -76.228882 18,975 48 428 -1856
2021-07-13 16:19:49 GMT 38.890137 -76.234612 19,075 48 430 -1792
2021-07-13 16:19:46 GMT 38.886204 -76.240356 19,150 48 432 -1856
2021-07-13 16:19:43 GMT 38.881966 -76.246521 19,350 48 435 -1792
2021-07-13 16:19:40 GMT 38.878006 -76.252342 19,375 48 435 -1856
2021-07-13 16:19:37 GMT 38.872650 -76.260040 19,500 48 436 -1856
2021-07-13 16:19:34 GMT 38.869995 -76.263985 19,525 48 437 -1856
2021-07-13 16:19:31 GMT 38.866241 -76.269417 19,900 48 443 -1792
2021-07-13 16:19:28 GMT 38.860840 -76.277237 19,750 48 440 -1920
2021-07-13 16:19:25 GMT 38.856781 -76.283142 19,900 48 444 -1856
2021-07-13 16:19:22 GMT 38.853836 -76.287453 19,900 48 444 -1792
2021-07-13 16:19:19 GMT 38.849194 -76.294189 20,000 48 447 -1856
2021-07-13 16:19:17 GMT 38.846695 -76.297783 20,075 48 447 -1920
2021-07-13 16:19:13 GMT 38.842583 -76.303711 20,150 48 447 -1920
2021-07-13 16:19:11 GMT 38.839836 -76.307678 20,200 48 447 -1856
2021-07-13 16:19:08 GMT 38.834610 -76.315216 20,400 48 448 -1792
2021-07-13 16:19:04 GMT 38.828018 -76.324768 20,525 48 449 -1728
2021-07-13 16:19:01 GMT 38.825272 -76.328766 20,550 48 449 -1728
2021-07-13 16:18:57 GMT 38.818375 -76.338684 20,975 48 450 -1728
2021-07-13 16:18:53 GMT 38.814045 -76.344849 20,775 48 450 -1728
2021-07-13 16:18:49 GMT 38.806690 -76.355347 20,925 48 451 -1664
2021-07-13 16:18:46 GMT 38.803898 -76.359375 20,975 48 451 -1728
2021-07-13 16:18:43 GMT 38.800545 -76.364136 21,050 48 452 -1792
2021-07-13 16:18:41 GMT 38.797195 -76.368896 21,150 48 452 -1856
2021-07-13 16:18:38 GMT 38.789612 -76.379700 21,300 48 453 -1920
2021-07-13 16:18:33 GMT 38.785416 -76.385681 21,400 47 453 -1920
2021-07-13 16:18:30 GMT 38.782333 -76.390030 21,550 47 454 -1856
2021-07-13 16:18:27 GMT 38.777252 -76.397255 21,575 47 454 -1856
2021-07-13 16:18:25 GMT 38.774151 -76.401611 21,650 47 454 -1856
2021-07-13 16:18:22 GMT 38.770477 -76.406807 21,725 47 455 -1728
2021-07-13 16:18:20 GMT 38.767639 -76.410805 21,800 47 455 -1792
2021-07-13 16:18:17 GMT 38.763535 -76.416565 21,950 47 455 -1792
2021-07-13 16:18:14 GMT 38.759171 -76.422752 22,025 47 455 -1728
2021-07-13 16:18:11 GMT 38.754879 -76.428711 22,125 47 455 -1728
2021-07-13 16:18:08 GMT 38.749512 -76.436302 22,150 47 455 -1792
2021-07-13 16:18:05 GMT 38.746078 -76.441078 22,225 47 456 -1792
2021-07-13 16:18:01 GMT 38.739807 -76.449860 22,375 47 457 -1856
2021-07-13 16:17:57 GMT 38.733276 -76.459106 22,600 48 457 -1856
2021-07-13 16:17:53 GMT 38.727646 -76.467163 22,850 48 459 -1536
2021-07-13 16:17:50 GMT 38.724804 -76.471191 22,675 48 458 -1792
2021-07-13 16:17:48 GMT 38.723083 -76.473633 22,750 48 459 -1728
2021-07-13 16:17:45 GMT 38.718338 -76.480545 22,875 49 460 -1472
2021-07-13 16:17:42 GMT 38.712708 -76.488724 22,925 49 460 -1408
2021-07-13 16:17:39 GMT 38.709412 -76.493622 22,975 49 459 -1408
2021-07-13 16:17:36 GMT 38.705521 -76.499474 23,075 50 460 -1408
2021-07-13 16:17:33 GMT 38.701721 -76.505325 23,100 50 459 -1472
2021-07-13 16:17:29 GMT 38.695572 -76.515015 23,225 51 458 -1472
2021-07-13 16:17:26 GMT 38.691696 -76.521446 23,400 56 457 -1216
2021-07-13 16:17:23 GMT 38.687889 -76.527954 23,350 54 457 -1280
2021-07-13 16:17:20 GMT 38.683979 -76.535034 23,425 55 457 -1216
2021-07-13 16:17:17 GMT 38.680256 -76.542236 23,500 61 455 -1536
2021-07-13 16:17:13 GMT 38.675926 -76.551453 23,625 64 453 -1472
2021-07-13 16:17:10 GMT 38.673969 -76.556213 23,650 63 453 -1600
2021-07-13 16:17:07 GMT 38.671188 -76.563423 23,750 65 452 -1472
2021-07-13 16:17:04 GMT 38.668762 -76.570229 23,775 66 451 -1472
2021-07-13 16:17:00 GMT 38.662674 -76.587845 23,925 66 452 -1408
2021-07-13 16:16:57 GMT 38.662674 -76.587845 23,925 66 452 -1408
2021-07-13 16:16:53 GMT 38.659286 -76.597572 24,050 66 452 -1408
2021-07-13 16:16:50 GMT 38.656586 -76.605400 24,150 66 452 -1344
2021-07-13 16:16:47 GMT 38.654419 -76.611755 24,200 66 452 -1280
2021-07-13 16:16:45 GMT 38.652237 -76.618118 24,300 66 452 -1344
2021-07-13 16:16:42 GMT 38.649345 -76.626404 24,300 66 452 -1344
2021-07-13 16:16:39 GMT 38.645508 -76.637642 24,500 66 451 -1408
2021-07-13 16:16:36 GMT 38.645508 -76.637642 24,425 66 451 -1344
2021-07-13 16:16:34 GMT 38.643173 -76.644508 24,500 66 451 -1408
2021-07-13 16:16:31 GMT 38.640472 -76.652328 24,550 66 451 -1408
2021-07-13 16:16:26 GMT 38.636635 -76.663574 24,675 66 451 -1408
2021-07-13 16:16:23 GMT 38.633789 -76.671852 24,750 66 452 -1472
2021-07-13 16:16:20 GMT 38.632095 -76.676750 24,850 66 453 -1472
2021-07-13 16:16:17 GMT 38.628754 -76.686600 24,875 66 453 -1472
2021-07-13 16:16:12 GMT 38.624905 -76.697876 25,000 66 454 -1472
2021-07-13 16:16:10 GMT 38.623032 -76.703262 25,075 66 454 -1408
2021-07-13 16:16:07 GMT 38.620697 -76.710182 25,475 66 456 -1472
2021-07-13 16:16:04 GMT 38.617130 -76.720520 25,225 66 456 -1472
2021-07-13 16:16:00 GMT 38.614429 -76.728455 25,300 66 457 -1472
2021-07-13 16:15:56 GMT 38.607468 -76.748695 25,425 66 457 -1472
2021-07-13 16:15:52 GMT 38.607468 -76.748695 25,500 66 458 -1472
2021-07-13 16:15:50 GMT 38.605453 -76.754669 25,550 66 458 -1408
2021-07-13 16:15:46 GMT 38.602512 -76.763062 25,650 66 458 -1408
2021-07-13 16:15:42 GMT 38.599594 -76.771507 25,775 65 459 -1344
2021-07-13 16:15:39 GMT 38.596645 -76.779907 25,950 65 461 -1408
2021-07-13 16:15:36 GMT 38.591949 -76.793236 25,900 65 460 -1344
2021-07-13 16:15:33 GMT 38.591949 -76.793236 25,950 65 461 -1408
2021-07-13 16:15:30 GMT 38.588791 -76.802193 26,000 65 461 -1472
2021-07-13 16:15:28 GMT 38.586731 -76.808167 26,050 65 461 -1408
2021-07-13 16:15:25 GMT 38.584126 -76.815613 26,125 65 461 -1472
2021-07-13 16:15:22 GMT 38.580959 -76.824585 26,200 65 461 -1536
2021-07-13 16:15:19 GMT 38.578865 -76.830505 26,300 66 461 -1472
2021-07-13 16:15:16 GMT 38.575745 -76.839478 26,400 66 462 -1472
2021-07-13 16:15:13 GMT 38.574348 -76.843506 26,475 66 462 -1408
2021-07-13 16:15:10 GMT 38.570206 -76.855408 26,575 66 462 -1408
2021-07-13 16:15:04 GMT 38.566223 -76.866920 26,575 66 462 -1408
2021-07-13 16:15:02 GMT 38.563797 -76.873901 26,700 66 462 -1344
2021-07-13 16:14:59 GMT 38.560318 -76.883881 26,800 66 463 -1408
2021-07-13 16:14:57 GMT 38.560318 -76.883881 26,850 66 463 -1408
2021-07-13 16:14:54 GMT 38.557358 -76.892395 26,850 66 463 -1408
2021-07-13 16:14:51 GMT 38.555054 -76.898865 27,000 65 464 -1408
2021-07-13 16:14:48 GMT 38.551399 -76.909363 27,025 65 464 -1344
2021-07-13 16:14:45 GMT 38.550156 -76.912834 27,100 65 464 -1472
2021-07-13 16:14:42 GMT 38.547207 -76.921326 27,125 65 464 -1408
2021-07-13 16:14:40 GMT 38.545258 -76.926865 27,250 65 464 -1408
2021-07-13 16:14:36 GMT 38.541576 -76.937317 27,275 65 464 -1472
2021-07-13 16:14:33 GMT 38.539108 -76.944336 27,350 65 464 -1472
2021-07-13 16:14:30 GMT 38.536469 -76.951828 27,475 65 464 -1472
2021-07-13 16:14:27 GMT 38.532944 -76.961853 27,525 65 465 -1472
2021-07-13 16:14:23 GMT 38.529984 -76.970337 27,600 65 465 -1408
2021-07-13 16:14:21 GMT 38.528046 -76.975883 27,650 65 465 -1536
2021-07-13 16:14:18 GMT 38.525749 -76.982361 27,725 65 465 -1472
2021-07-13 16:14:16 GMT 38.523468 -76.988846 27,775 65 465 -1472
2021-07-13 16:14:13 GMT 38.521187 -76.995361 27,850 66 465 -1472
2021-07-13 16:14:09 GMT 38.518021 -77.004395 28,000 66 463 -1408
2021-07-13 16:14:05 GMT 38.513828 -77.016357 28,050 66 462 -1344
2021-07-13 16:14:01 GMT 38.511566 -77.022881 28,100 66 462 -1472
2021-07-13 16:13:58 GMT 38.508942 -77.030334 28,225 65 461 -1472
2021-07-13 16:13:55 GMT 38.505821 -77.039307 28,275 65 460 -1472
2021-07-13 16:13:52 GMT 38.503235 -77.046700 28,325 65 460 -1536
2021-07-13 16:13:50 GMT 38.500610 -77.054138 28,400 65 459 -1216
2021-07-13 16:13:47 GMT 38.498562 -77.060059 28,425 65 458 -1280
2021-07-13 16:13:44 GMT 38.496468 -77.065979 28,550 66 457 -1152
2021-07-13 16:13:40 GMT 38.493019 -77.075806 28,625 66 455 -1152
2021-07-13 16:13:37 GMT 38.490463 -77.083183 28,650 66 455 -1216
2021-07-13 16:13:35 GMT 38.488598 -77.088623 28,675 66 455 -1216
2021-07-13 16:13:31 GMT 38.485016 -77.098885 28,775 66 453 -1280
2021-07-13 16:13:29 GMT 38.482780 -77.105286 28,825 66 453 -1344
2021-07-13 16:13:26 GMT 38.481430 -77.109192 28,875 66 453 -1408
2021-07-13 16:13:24 GMT 38.479202 -77.115547 28,950 66 453 -1024
2021-07-13 16:13:21 GMT 38.476311 -77.123840 28,975 65 454 -768
2021-07-13 16:13:18 GMT 38.474075 -77.130173 29,000 66 455 -64
2021-07-13 16:13:15 GMT 38.471329 -77.137993 29,000 66 455 128
2021-07-13 16:13:12 GMT 38.468948 -77.144859 29,000 66 455 128
2021-07-13 16:13:09 GMT 38.466393 -77.152222 29,000 66 455 0
2021-07-13 16:13:06 GMT 38.460899 -77.167847 29,000 65 455 0
2021-07-13 16:13:03 GMT 38.460899 -77.167847 29,000 65 455 64
2021-07-13 16:12:59 GMT 38.458481 -77.174744 29,000 65 455 64
2021-07-13 16:12:57 GMT 38.450893 -77.196350 29,000 66 455 0
2021-07-13 16:12:53 GMT 38.450893 -77.196350 29,000 66 456 64
2021-07-13 16:12:50 GMT 38.449215 -77.201233 29,000 66 456 128
2021-07-13 16:12:47 GMT 38.447495 -77.206116 29,000 66 457 0
2021-07-13 16:12:42 GMT 38.442699 -77.219910 29,000 66 457 0
2021-07-13 16:12:39 GMT 38.440651 -77.225830 28,975 66 458 64
2021-07-13 16:12:36 GMT 38.437531 -77.234680 29,000 65 459 -64
2021-07-13 16:12:33 GMT 38.435436 -77.240601 29,000 65 459 -64
2021-07-13 16:12:29 GMT 38.432365 -77.249512 29,000 66 459 -192
2021-07-13 16:12:26 GMT 38.429245 -77.258423 29,000 66 459 -64
2021-07-13 16:12:22 GMT 38.423428 -77.275208 29,000 66 458 128
2021-07-13 16:12:19 GMT 38.421204 -77.281654 29,000 66 459 64
2021-07-13 16:12:17 GMT 38.421204 -77.281654 29,000 66 459 64
2021-07-13 16:12:14 GMT 38.419144 -77.287621 29,000 66 459 -64
2021-07-13 16:12:10 GMT 38.415882 -77.296997 29,000 66 459 -128
2021-07-13 16:12:07 GMT 38.412964 -77.305420 29,000 66 459 -128
2021-07-13 16:12:04 GMT 38.409897 -77.314354 29,000 66 460 -64
2021-07-13 16:12:01 GMT 38.408524 -77.318329 29,000 66 460 -64
2021-07-13 16:11:58 GMT 38.404945 -77.328766 29,000 66 459 -64
2021-07-13 16:11:55 GMT 38.403076 -77.334167 29,000 66 457 64
2021-07-13 16:11:52 GMT 38.399544 -77.344589 29,000 66 457 64
2021-07-13 16:11:49 GMT 38.397823 -77.349541 29,000 66 457 64
2021-07-13 16:11:46 GMT 38.395821 -77.355453 29,000 66 456 0
2021-07-13 16:11:43 GMT 38.392960 -77.363853 29,000 66 455 -64
2021-07-13 16:11:40 GMT 38.389618 -77.373672 29,000 66 454 -64
2021-07-13 16:11:37 GMT 38.387115 -77.381004 29,000 66 454 -128
2021-07-13 16:11:34 GMT 38.385590 -77.385414 29,000 63 449 0
2021-07-13 16:11:31 GMT 38.382568 -77.394180 29,000 66 452 64
2021-07-13 16:11:27 GMT 38.379295 -77.403458 29,000 65 452 0
2021-07-13 16:11:23 GMT 38.375153 -77.415039 29,000 65 451 0
2021-07-13 16:11:20 GMT 38.372356 -77.422745 29,000 64 450 64
2021-07-13 16:11:16 GMT 38.369144 -77.431404 29,000 64 449 128
2021-07-13 16:11:12 GMT 38.366043 -77.439468 29,000 63 449 0
2021-07-13 16:11:09 GMT 38.362488 -77.448418 29,000 61 450 -64
2021-07-13 16:11:04 GMT 38.350296 -77.475525 29,000 60 450 -128
2021-07-13 16:10:59 GMT 38.350296 -77.475525 29,000 58 450 128
2021-07-13 16:10:54 GMT 38.346519 -77.483170 29,000 57 450 128
2021-07-13 16:10:51 GMT 38.343449 -77.489494 29,000 57 450 64
2021-07-13 16:10:46 GMT 38.338562 -77.499352 29,000 57 450 0
2021-07-13 16:10:44 GMT 38.336792 -77.502930 29,000 57 450 0
2021-07-13 16:10:41 GMT 38.333496 -77.509659 29,000 57 450 0
2021-07-13 16:10:35 GMT 38.327530 -77.521797 29,000 58 450 -128
2021-07-13 16:10:33 GMT 38.324661 -77.527596 29,000 58 450 0
2021-07-13 16:10:28 GMT 38.317799 -77.541504 29,000 58 450 128
2021-07-13 16:10:25 GMT 38.316494 -77.544189 29,000 58 450 0
2021-07-13 16:10:21 GMT 38.311432 -77.554535 28,975 58 450 128
2021-07-13 16:10:17 GMT 38.306992 -77.563538 28,975 58 451 128
2021-07-13 16:10:13 GMT 38.300575 -77.576553 28,975 57 452 -128
2021-07-13 16:10:09 GMT 38.298386 -77.581093 29,000 57 452 -192
2021-07-13 16:10:05 GMT 38.293499 -77.591003 29,025 57 452 -384
2021-07-13 16:10:02 GMT 38.290146 -77.597778 29,050 58 455 -1536
2021-07-13 16:09:59 GMT 38.287033 -77.604088 29,050 58 453 -192
2021-07-13 16:09:57 GMT 38.284142 -77.609985 29,050 58 454 -128
2021-07-13 16:09:53 GMT 38.280350 -77.617645 29,075 58 455 -640
2021-07-13 16:09:49 GMT 38.272083 -77.634529 29,175 58 455 -1344
2021-07-13 16:09:46 GMT 38.272083 -77.634529 29,175 58 455 -1344
2021-07-13 16:09:42 GMT 38.268547 -77.641754 29,250 58 455 -1536
2021-07-13 16:09:40 GMT 38.265198 -77.648560 29,350 58 455 -1536
2021-07-13 16:09:33 GMT 38.256954 -77.665337 29,525 58 454 -1472
2021-07-13 16:09:29 GMT 38.247597 -77.684387 29,850 58 454 -1536
2021-07-13 16:09:24 GMT 38.247597 -77.684387 29,725 58 454 -1472
2021-07-13 16:09:22 GMT 38.242245 -77.695251 30,250 58 453 -1536
2021-07-13 16:09:19 GMT 38.242245 -77.695251 29,900 58 454 -1600
2021-07-13 16:09:15 GMT 38.238289 -77.703430 29,950 58 454 -1536
2021-07-13 16:09:12 GMT 38.234482 -77.711090 30,025 58 454 -1472
2021-07-13 16:09:08 GMT 38.230957 -77.718338 30,125 58 453 -1536
2021-07-13 16:09:05 GMT 38.226974 -77.726463 30,200 58 453 -1472
2021-07-13 16:09:02 GMT 38.222534 -77.735519 30,300 58 453 -1600
2021-07-13 16:08:58 GMT 38.218735 -77.743202 30,850 58 452 -1472
2021-07-13 16:08:54 GMT 38.214981 -77.750885 30,850 57 456 -1536
2021-07-13 16:08:51 GMT 38.210999 -77.758949 30,650 57 452 -1344
2021-07-13 16:08:48 GMT 38.208122 -77.764816 30,725 57 454 -1472
2021-07-13 16:08:45 GMT 38.199875 -77.781509 30,850 57 454 -1472
2021-07-13 16:08:40 GMT 38.199875 -77.781509 30,850 57 454 -1472
2021-07-13 16:08:37 GMT 38.196304 -77.788757 30,975 57 454 -1536
2021-07-13 16:08:31 GMT 38.188057 -77.805412 31,600 57 455 -1472
2021-07-13 16:08:28 GMT 38.184471 -77.812698 31,225 57 455 -1536
2021-07-13 16:08:21 GMT 38.178654 -77.824463 31,275 57 456 -1600
2021-07-13 16:08:17 GMT 38.173721 -77.834435 31,500 57 456 -1600
2021-07-13 16:08:11 GMT 38.166504 -77.848885 31,550 57 458 -1536
2021-07-13 16:08:09 GMT 38.164902 -77.852043 31,625 57 458 -1536
2021-07-13 16:08:06 GMT 38.161476 -77.858856 31,675 57 459 -1536
2021-07-13 16:08:00 GMT 38.153046 -77.875648 31,875 57 461 -1536
2021-07-13 16:07:57 GMT 38.144066 -77.893425 32,050 57 461 -1472
2021-07-13 16:07:51 GMT 38.144066 -77.893425 32,050 57 462 -1472
2021-07-13 16:07:49 GMT 38.141052 -77.899323 32,425 57 462 -1472
2021-07-13 16:07:46 GMT 38.138016 -77.905251 32,225 57 463 -1408
2021-07-13 16:07:39 GMT 38.129471 -77.922165 32,350 57 463 -1344
2021-07-13 16:07:34 GMT 38.122009 -77.936836 32,500 57 465 -1408
2021-07-13 16:07:30 GMT 38.119675 -77.941399 32,550 57 465 -1408
2021-07-13 16:07:26 GMT 38.114090 -77.952377 32,675 57 465 -1472
2021-07-13 16:07:22 GMT 38.105381 -77.969376 32,825 57 467 -1472
2021-07-13 16:07:18 GMT 38.105381 -77.969376 32,975 57 469 -384
2021-07-13 16:07:14 GMT 38.100449 -77.979027 32,925 57 469 -192
2021-07-13 16:07:10 GMT 38.095734 -77.988258 32,975 57 469 -256
2021-07-13 16:07:06 GMT 38.091274 -77.997017 33,000 57 469 -128
2021-07-13 16:07:03 GMT 38.087086 -78.005379 33,000 57 468 -128
2021-07-13 16:06:59 GMT 38.082851 -78.013680 33,000 57 468 64
2021-07-13 16:06:57 GMT 38.079590 -78.020187 33,000 57 468 64
2021-07-13 16:06:53 GMT 38.076378 -78.026695 33,000 58 468 0
2021-07-13 16:06:49 GMT 38.071518 -78.036415 33,000 58 468 0
2021-07-13 16:06:45 GMT 38.065567 -78.048508 33,000 58 467 0
2021-07-13 16:06:41 GMT 38.062820 -78.054062 33,000 58 467 -128
2021-07-13 16:06:38 GMT 38.058968 -78.062042 33,000 58 467 0
2021-07-13 16:06:32 GMT 38.051380 -78.077927 33,000 59 466 -64
2021-07-13 16:06:27 GMT 38.047379 -78.086342 33,000 59 465 0
2021-07-13 16:06:24 GMT 38.043465 -78.094818 33,000 61 464 0
2021-07-13 16:06:18 GMT 38.036499 -78.110458 33,000 61 464 0
2021-07-13 16:06:15 GMT 38.034622 -78.114761 33,000 61 463 -64
2021-07-13 16:06:11 GMT 38.030617 -78.124313 33,000 62 462 -128
2021-07-13 16:06:08 GMT 38.027126 -78.133034 33,000 64 461 -128
2021-07-13 16:06:04 GMT 38.024002 -78.141312 33,025 65 460 0
2021-07-13 16:06:01 GMT 38.020657 -78.150589 33,000 75 451 128
2021-07-13 16:05:57 GMT 38.017639 -78.160011 33,000 70 455 128
2021-07-13 16:05:53 GMT 38.014324 -78.171608 33,000 73 453 64
2021-07-13 16:05:48 GMT 38.011276 -78.184265 33,000 76 451 64
2021-07-13 16:05:44 GMT 38.009491 -78.193497 33,000 78 449 0
2021-07-13 16:05:40 GMT 38.007946 -78.203308 32,975 81 447 -64
2021-07-13 16:05:37 GMT 38.006927 -78.211082 33,000 81 447 -64
2021-07-13 16:05:35 GMT 38.005325 -78.224525 33,000 81 446 0
2021-07-13 16:05:32 GMT 38.005325 -78.224525 33,000 81 446 -64
2021-07-13 16:05:26 GMT 38.003757 -78.238480 33,000 81 446 -64
2021-07-13 16:05:22 GMT 38.002083 -78.252991 33,000 81 446 0
2021-07-13 16:05:18 GMT 38.001476 -78.258125 33,000 81 446 -64
2021-07-13 16:05:16 GMT 38.000839 -78.263855 33,000 81 446 -64
2021-07-13 16:05:13 GMT 37.999649 -78.274139 33,000 81 446 -64
2021-07-13 16:05:11 GMT 37.999195 -78.277763 33,025 81 445 192
2021-07-13 16:05:08 GMT 37.998123 -78.287079 33,025 81 445 -64
2021-07-13 16:05:01 GMT 37.996033 -78.305115 33,000 81 445 192
2021-07-13 16:04:56 GMT 37.994476 -78.318550 33,000 81 445 64
2021-07-13 16:04:51 GMT 37.992817 -78.332520 33,000 81 446 64
2021-07-13 16:04:45 GMT 37.991180 -78.346428 33,000 81 446 -64
2021-07-13 16:04:40 GMT 37.989792 -78.358376 33,000 81 446 0
2021-07-13 16:04:36 GMT 37.988583 -78.368706 33,000 81 446 0
2021-07-13 16:04:24 GMT 37.984997 -78.399689 33,000 81 446 0
2021-07-13 16:04:19 GMT 37.983490 -78.412636 33,000 81 446 -64
2021-07-13 16:04:16 GMT 37.982574 -78.420410 33,000 81 446 0
2021-07-13 16:04:13 GMT 37.981705 -78.428123 33,000 81 446 0
2021-07-13 16:04:09 GMT 37.980576 -78.437965 33,000 81 446 0
2021-07-13 16:04:06 GMT 37.979595 -78.446266 33,000 81 446 0
2021-07-13 16:04:02 GMT 37.978317 -78.457108 33,000 81 446 -64
2021-07-13 16:03:55 GMT 37.976257 -78.474640 33,000 81 446 64
2021-07-13 16:03:49 GMT 37.974060 -78.493279 33,000 81 446 64
2021-07-13 16:03:41 GMT 37.971729 -78.513435 33,000 81 446 0
2021-07-13 16:03:38 GMT 37.971085 -78.519112 33,000 81 446 0
2021-07-13 16:03:32 GMT 37.969391 -78.533607 33,000 81 446 -64
2021-07-13 16:03:28 GMT 37.968376 -78.542336 33,000 81 446 -64
2021-07-13 16:03:26 GMT 37.967514 -78.550087 33,000 81 446 0
2021-07-13 16:03:22 GMT 37.966515 -78.558876 33,000 81 446 0
2021-07-13 16:03:16 GMT 37.964813 -78.573868 33,000 81 446 -128
2021-07-13 16:03:13 GMT 37.963623 -78.584213 33,000 81 446 -64
2021-07-13 16:03:06 GMT 37.960968 -78.606941 33,000 81 446 -64
2021-07-13 16:03:03 GMT 37.960968 -78.606941 33,000 81 446 0
2021-07-13 16:02:55 GMT 37.958176 -78.630730 33,000 81 446 0
2021-07-13 16:02:52 GMT 37.957443 -78.636925 33,000 81 446 64
2021-07-13 16:02:46 GMT 37.955383 -78.654510 33,000 81 446 0
2021-07-13 16:02:43 GMT 37.954597 -78.661217 33,000 81 446 0
2021-07-13 16:02:36 GMT 37.952271 -78.681221 33,000 81 446 0
2021-07-13 16:02:30 GMT 37.949200 -78.707726 33,000 81 446 -64
2021-07-13 16:02:25 GMT 37.949200 -78.707726 33,000 81 446 64
2021-07-13 16:02:22 GMT 37.948334 -78.715523 33,000 81 446 64
2021-07-13 16:02:13 GMT 37.945541 -78.739250 33,000 81 447 -64
2021-07-13 16:02:06 GMT 37.942841 -78.762039 33,000 81 447 -64
2021-07-13 16:02:03 GMT 37.942245 -78.767242 33,000 81 447 -64
2021-07-13 16:01:55 GMT 37.939980 -78.786362 33,000 81 447 64
2021-07-13 16:01:50 GMT 37.937943 -78.803413 33,000 81 447 0
2021-07-13 16:01:43 GMT 37.936111 -78.818954 33,000 81 447 0
2021-07-13 16:01:31 GMT 37.929367 -78.874252 33,000 81 447 64
2021-07-13 16:01:20 GMT 37.927040 -78.892822 33,000 81 447 -64
2021-07-13 16:01:14 GMT 37.925537 -78.904686 33,000 81 447 0
2021-07-13 16:01:08 GMT 37.925537 -78.904686 33,000 81 447 0
2021-07-13 16:01:03 GMT 37.923706 -78.919121 33,000 80 447 -128
2021-07-13 16:00:58 GMT 37.921638 -78.935158 33,000 80 447 64
2021-07-13 16:00:53 GMT 37.920338 -78.945427 33,000 80 447 0
2021-07-13 16:00:48 GMT 37.918335 -78.960953 33,000 80 447 64
2021-07-13 16:00:42 GMT 37.916565 -78.974869 33,000 80 447 -128
2021-07-13 16:00:37 GMT 37.914688 -78.989365 33,000 80 447 -192
2021-07-13 16:00:32 GMT 37.913445 -78.999161 33,000 80 447 -128
2021-07-13 16:00:29 GMT 37.910931 -79.018806 32,975 80 447 -64
2021-07-13 16:00:24 GMT 37.910931 -79.018806 33,000 80 447 -64
2021-07-13 16:00:20 GMT 37.909348 -79.031227 32,975 82 448 -64
2021-07-13 16:00:12 GMT 37.906677 -79.052414 33,000 82 448 -64
2021-07-13 16:00:06 GMT 37.905067 -79.065323 33,000 82 448 -64
2021-07-13 16:00:03 GMT 37.904022 -79.074158 33,000 81 447 64
2021-07-13 15:59:59 GMT 37.902969 -79.083450 33,000 83 447 -64
2021-07-13 15:59:56 GMT 37.902042 -79.092247 33,000 86 441 -128
2021-07-13 15:59:52 GMT 37.900879 -79.104729 33,000 86 441 -128
2021-07-13 15:59:48 GMT 37.899994 -79.115585 33,000 85 445 0
2021-07-13 15:59:39 GMT 37.898804 -79.136330 33,000 86 443 -64
2021-07-13 15:59:32 GMT 37.897945 -79.153389 33,000 86 443 64
2021-07-13 15:59:29 GMT 37.897480 -79.162704 33,000 86 443 64
2021-07-13 15:59:25 GMT 37.896873 -79.174110 33,000 86 443 64
2021-07-13 15:59:22 GMT 37.896595 -79.180321 33,000 86 441 -128
2021-07-13 15:59:19 GMT 37.896175 -79.188614 33,000 86 442 -128
2021-07-13 15:59:11 GMT 37.895279 -79.207741 33,000 86 442 -64
2021-07-13 15:59:08 GMT 37.894733 -79.218529 33,000 86 442 0
2021-07-13 15:59:05 GMT 37.894547 -79.222710 33,000 86 442 64
2021-07-13 15:59:02 GMT 37.893986 -79.235069 33,000 86 441 -128
2021-07-13 15:58:57 GMT 37.893429 -79.246414 33,000 86 442 64
2021-07-13 15:58:54 GMT 37.893082 -79.253151 33,000 86 442 64
2021-07-13 15:58:51 GMT 37.892731 -79.260864 33,000 86 442 -64
2021-07-13 15:58:44 GMT 37.891846 -79.278923 33,000 86 442 128
2021-07-13 15:58:40 GMT 37.891426 -79.286659 33,000 86 442 0
2021-07-13 15:58:34 GMT 37.890472 -79.305748 33,000 86 442 -128
2021-07-13 15:58:28 GMT 37.889832 -79.319183 33,000 86 442 -64
2021-07-13 15:58:25 GMT 37.889465 -79.326370 33,000 86 442 -64
2021-07-13 15:58:20 GMT 37.888733 -79.340805 33,000 86 441 -128
2021-07-13 15:58:14 GMT 37.888046 -79.354248 33,025 86 441 64
2021-07-13 15:58:10 GMT 37.887283 -79.369118 33,000 86 440 128
2021-07-13 15:58:06 GMT 37.886772 -79.379448 33,000 86 440 64
2021-07-13 15:57:57 GMT 37.885700 -79.399986 33,000 86 440 -128
2021-07-13 15:57:53 GMT 37.885208 -79.408714 33,000 86 441 -128
2021-07-13 15:57:49 GMT 37.884537 -79.421539 33,000 86 439 -64
2021-07-13 15:57:45 GMT 37.884064 -79.430275 33,000 86 439 128
2021-07-13 15:57:42 GMT 37.883606 -79.439507 33,000 86 439 0
2021-07-13 15:57:37 GMT 37.882828 -79.453888 33,000 86 440 0
2021-07-13 15:57:34 GMT 37.882584 -79.458496 33,000 86 440 0
2021-07-13 15:57:24 GMT 37.881001 -79.487160 33,000 85 440 -64
2021-07-13 15:57:16 GMT 37.880070 -79.503578 33,000 85 440 64
2021-07-13 15:57:13 GMT 37.879555 -79.512772 33,000 85 440 64
2021-07-13 15:57:08 GMT 37.878845 -79.524536 33,000 85 440 64
2021-07-13 15:57:03 GMT 37.877972 -79.539406 33,000 85 440 0
2021-07-13 15:56:56 GMT 37.876995 -79.555824 33,000 85 440 0
2021-07-13 15:56:51 GMT 37.876251 -79.568123 33,000 85 440 0
2021-07-13 15:56:44 GMT 37.875092 -79.587067 33,000 85 440 0
2021-07-13 15:56:39 GMT 37.874405 -79.598343 33,000 85 439 0
2021-07-13 15:56:32 GMT 37.873039 -79.620308 33,000 85 439 64
2021-07-13 15:56:24 GMT 37.871567 -79.644333 33,000 85 439 128
2021-07-13 15:56:11 GMT 37.869965 -79.671478 33,000 85 439 64
2021-07-13 15:56:01 GMT 37.868546 -79.697571 33,000 86 438 -64
2021-07-13 15:55:56 GMT 37.868011 -79.708321 33,000 86 438 -128
2021-07-13 15:55:50 GMT 37.866898 -79.752678 33,000 88 437 -64
2021-07-13 15:55:39 GMT 37.866898 -79.752678 33,000 89 436 64
2021-07-13 15:55:21 GMT 37.866486 -79.798492 33,000 89 436 0
2021-07-13 15:55:13 GMT 37.866241 -79.821289 33,000 89 436 0
2021-07-13 15:55:04 GMT 37.866055 -79.841644 33,000 89 437 128
2021-07-13 15:54:59 GMT 37.865936 -79.856583 32,975 89 437 0
2021-07-13 15:54:55 GMT 37.865822 -79.866302 32,975 89 437 0
2021-07-13 15:54:51 GMT 37.865753 -79.874756 32,975 89 437 64
2021-07-13 15:54:44 GMT 37.865498 -79.894905 32,975 89 438 0
2021-07-13 15:54:37 GMT 37.865295 -79.913849 33,000 89 438 -448
2021-07-13 15:54:32 GMT 37.865158 -79.924072 33,050 89 437 -512
2021-07-13 15:54:23 GMT 37.864929 -79.947449 33,050 89 436 -64
2021-07-13 15:54:13 GMT 37.864658 -79.971451 33,200 89 436 -1664
2021-07-13 15:54:02 GMT 37.864426 -79.998856 33,475 89 433 -1472
2021-07-13 15:53:52 GMT 37.864105 -80.027626 33,750 89 431 -1408
2021-07-13 15:53:39 GMT 37.863773 -80.057251 34,025 89 430 -1472
2021-07-13 15:53:26 GMT 37.863373 -80.091911 34,350 89 431 -1536
2021-07-13 15:53:22 GMT 37.863281 -80.102959 34,475 89 431 -1472
2021-07-13 15:53:15 GMT 37.863075 -80.118576 34,625 89 431 -1472
2021-07-13 15:53:10 GMT 37.862915 -80.131119 34,750 89 431 -1472
2021-07-13 15:53:07 GMT 37.862797 -80.139709 34,825 89 430 -1408
2021-07-13 15:53:01 GMT 37.862610 -80.154755 34,950 89 429 -768
2021-07-13 15:52:55 GMT 37.862427 -80.166756 35,000 89 429 -320
2021-07-13 15:52:50 GMT 37.862274 -80.180267 35,000 89 428 -64
2021-07-13 15:52:40 GMT 37.861912 -80.205811 35,025 88 428 64
2021-07-13 15:52:30 GMT 37.861542 -80.233269 35,000 89 429 128
2021-07-13 15:52:19 GMT 37.861214 -80.257812 35,000 89 429 128
2021-07-13 15:52:09 GMT 37.860889 -80.283844 35,000 89 429 0
2021-07-13 15:51:59 GMT 37.860535 -80.310349 35,000 88 429 0
2021-07-13 15:51:46 GMT 37.860123 -80.341438 35,000 89 429 64
2021-07-13 15:51:37 GMT 37.859848 -80.362480 35,000 89 430 0
2021-07-13 15:51:28 GMT 37.859482 -80.388542 35,000 89 430 -64
2021-07-13 15:51:17 GMT 37.859161 -80.413612 35,000 88 429 0
2021-07-13 15:51:06 GMT 37.858795 -80.441177 35,000 88 429 0
2021-07-13 15:51:01 GMT 37.858566 -80.454689 35,000 88 429 128
2021-07-13 15:50:57 GMT 37.858429 -80.465736 35,000 88 429 64
2021-07-13 15:50:48 GMT 37.858017 -80.493790 35,000 88 430 0
2021-07-13 15:50:39 GMT 37.857815 -80.507332 35,000 88 430 0
2021-07-13 15:50:35 GMT 37.857677 -80.517426 35,000 88 430 -128
2021-07-13 15:50:24 GMT 37.857258 -80.545486 35,000 88 430 128
2021-07-13 15:50:15 GMT 37.856918 -80.567123 35,000 88 430 -64
2021-07-13 15:50:05 GMT 37.856464 -80.596779 35,000 88 432 64
2021-07-13 15:49:52 GMT 37.855999 -80.626038 35,000 88 432 -64
2021-07-13 15:49:37 GMT 37.855362 -80.664894 35,000 88 432 0
2021-07-13 15:49:29 GMT 37.854950 -80.687103 35,000 88 434 64
2021-07-13 15:49:21 GMT 37.854649 -80.705864 35,000 88 434 -64
2021-07-13 15:49:14 GMT 37.854309 -80.724617 35,000 88 434 0
2021-07-13 15:49:11 GMT 37.854183 -80.731178 35,000 88 434 0
2021-07-13 15:49:03 GMT 37.853813 -80.752495 35,000 88 435 0
2021-07-13 15:48:51 GMT 37.853394 -80.781990 35,000 88 436 64
2021-07-13 15:48:42 GMT 37.853027 -80.805962 35,000 88 437 0
2021-07-13 15:48:29 GMT 37.852554 -80.838058 34,975 88 437 64
2021-07-13 15:48:20 GMT 37.852230 -80.859550 35,000 88 438 -128
2021-07-13 15:48:11 GMT 37.851746 -80.885674 35,000 88 439 64
2021-07-13 15:47:59 GMT 37.851242 -80.913315 35,000 88 439 0
2021-07-13 15:47:50 GMT 37.850693 -80.938965 35,000 88 440 0
2021-07-13 15:47:38 GMT 37.850098 -80.967720 35,000 88 440 128
2021-07-13 15:47:27 GMT 37.849548 -80.995415 35,000 88 440 -64
2021-07-13 15:47:19 GMT 37.849091 -81.017975 35,000 88 439 -64
2021-07-13 15:47:07 GMT 37.848553 -81.046204 35,000 88 439 -64
2021-07-13 15:46:57 GMT 37.848038 -81.072327 35,000 88 439 128
2021-07-13 15:46:48 GMT 37.847534 -81.097916 35,000 88 439 64
2021-07-13 15:46:37 GMT 37.846970 -81.125015 35,000 88 438 -64
2021-07-13 15:46:26 GMT 37.846390 -81.153145 35,000 88 438 0
2021-07-13 15:46:14 GMT 37.845795 -81.181778 35,000 88 438 64
2021-07-13 15:46:05 GMT 37.845291 -81.205269 35,000 88 438 -128
2021-07-13 15:45:55 GMT 37.844559 -81.240974 35,000 88 438 64
2021-07-13 15:45:44 GMT 37.844177 -81.258881 35,000 88 438 128
2021-07-13 15:45:35 GMT 37.843571 -81.285454 35,000 88 438 -64
2021-07-13 15:45:24 GMT 37.843048 -81.310455 35,000 88 438 64
2021-07-13 15:45:14 GMT 37.842453 -81.336563 35,000 88 438 -256
2021-07-13 15:45:04 GMT 37.841904 -81.363579 35,000 88 437 -64
2021-07-13 15:44:53 GMT 37.841335 -81.389587 35,000 88 437 128
2021-07-13 15:44:43 GMT 37.840759 -81.416641 35,000 88 437 -64
2021-07-13 15:44:32 GMT 37.839520 -81.469116 35,000 88 436 64
2021-07-13 15:44:22 GMT 37.839520 -81.469116 35,000 88 436 0
2021-07-13 15:44:11 GMT 37.838821 -81.498611 35,000 88 436 64
2021-07-13 15:44:01 GMT 37.838264 -81.523033 35,000 88 436 -64
2021-07-13 15:43:50 GMT 37.837555 -81.551048 35,000 88 436 0
2021-07-13 15:43:40 GMT 37.836773 -81.583099 35,000 88 436 0
2021-07-13 15:43:30 GMT 37.836308 -81.602386 35,000 88 434 -64
2021-07-13 15:43:20 GMT 37.835705 -81.626747 35,000 88 434 64
2021-07-13 15:43:17 GMT 37.835518 -81.633789 35,000 88 434 64
2021-07-13 15:43:11 GMT 37.835144 -81.648003 35,000 88 434 -64
2021-07-13 15:43:08 GMT 37.834957 -81.655106 35,000 88 434 0
2021-07-13 15:43:00 GMT 37.834305 -81.678848 35,000 88 432 -128
2021-07-13 15:42:47 GMT 37.833527 -81.709061 35,000 88 429 -128
2021-07-13 15:42:38 GMT 37.832840 -81.735008 35,000 88 425 64
2021-07-13 15:42:27 GMT 37.832199 -81.759727 35,025 88 421 192
2021-07-13 15:42:22 GMT 37.831886 -81.771957 35,000 88 417 -64
2021-07-13 15:42:17 GMT 37.831512 -81.785629 35,000 88 416 64
2021-07-13 15:42:14 GMT 37.831375 -81.791420 35,000 88 415 -64
2021-07-13 15:42:08 GMT 37.830910 -81.807838 35,000 88 412 -448
2021-07-13 15:42:05 GMT 37.830826 -81.811211 35,025 88 411 128
2021-07-13 15:41:56 GMT 37.830166 -81.834648 35,000 87 407 64
2021-07-13 15:41:46 GMT 37.829544 -81.856850 35,000 87 402 64
2021-07-13 15:41:37 GMT 37.828812 -81.880173 35,000 87 398 -128
2021-07-13 15:41:24 GMT 37.827805 -81.911430 35,000 87 391 -64
2021-07-13 15:41:15 GMT 37.826385 -81.951111 35,025 87 386 -64
2021-07-13 15:41:05 GMT 37.826385 -81.951111 35,025 87 381 0
2021-07-13 15:40:54 GMT 37.825554 -81.976341 35,000 90 368 1088
2021-07-13 15:40:52 GMT 37.825417 -81.980698 34,975 87 375 192
2021-07-13 15:40:45 GMT 37.824905 -81.997238 34,975 87 371 192
2021-07-13 15:40:34 GMT 37.824345 -82.019630 34,850 88 368 1024
2021-07-13 15:40:23 GMT 37.824188 -82.043266 34,675 90 368 1088
2021-07-13 15:40:14 GMT 37.824600 -82.063843 34,500 92 367 1152
2021-07-13 15:40:03 GMT 37.825562 -82.086105 34,325 93 366 1152
2021-07-13 15:39:51 GMT 37.826626 -82.111336 34,075 93 367 1408
2021-07-13 15:39:41 GMT 37.827484 -82.131454 33,875 93 368 1152
2021-07-13 15:39:32 GMT 37.828400 -82.152901 33,675 93 368 1216
2021-07-13 15:39:21 GMT 37.829453 -82.176971 33,450 93 368 1152
2021-07-13 15:39:11 GMT 37.830303 -82.197197 33,250 93 369 1344
2021-07-13 15:39:00 GMT 37.831280 -82.220428 33,025 93 369 1280
2021-07-13 15:38:51 GMT 37.832199 -82.241493 32,825 93 369 1088
2021-07-13 15:38:40 GMT 37.833141 -82.264313 32,625 92 369 1216
2021-07-13 15:38:29 GMT 37.834072 -82.286758 32,400 93 369 1216
2021-07-13 15:38:20 GMT 37.835052 -82.309151 32,200 93 369 1216
2021-07-13 15:38:08 GMT 37.835999 -82.332832 31,975 92 370 1280
2021-07-13 15:37:59 GMT 37.836868 -82.353577 31,775 92 370 1152
2021-07-13 15:37:47 GMT 37.837830 -82.376831 31,550 92 370 1280
2021-07-13 15:37:38 GMT 37.838699 -82.398399 31,325 92 370 1280
2021-07-13 15:37:28 GMT 37.839661 -82.422119 31,100 92 369 1280
2021-07-13 15:37:19 GMT 37.840450 -82.441048 30,925 92 369 1216
2021-07-13 15:37:16 GMT 37.840668 -82.445786 30,875 92 369 1216
2021-07-13 15:37:06 GMT 37.841492 -82.466476 30,675 92 369 1088
2021-07-13 15:36:57 GMT 37.842316 -82.487564 30,475 92 368 1216
2021-07-13 15:36:46 GMT 37.843201 -82.509895 30,275 92 368 1280
2021-07-13 15:36:36 GMT 37.844101 -82.532631 30,050 92 367 1280
2021-07-13 15:36:25 GMT 37.845016 -82.554955 29,825 92 367 1344
2021-07-13 15:36:14 GMT 37.845886 -82.577156 29,625 92 367 1216
2021-07-13 15:36:05 GMT 37.846756 -82.599480 29,400 92 367 1216
2021-07-13 15:35:54 GMT 37.847580 -82.620872 29,200 92 366 1216
2021-07-13 15:35:43 GMT 37.848495 -82.644768 28,950 92 366 1216
2021-07-13 15:35:34 GMT 37.849319 -82.666100 28,750 92 365 1152
2021-07-13 15:35:21 GMT 37.850235 -82.689941 28,525 92 364 1152
2021-07-13 15:35:12 GMT 37.850967 -82.709518 28,350 92 364 1088
2021-07-13 15:35:02 GMT 37.851883 -82.734123 28,125 92 363 1216
2021-07-13 15:34:52 GMT 37.852615 -82.752708 27,925 92 362 1216
2021-07-13 15:34:41 GMT 37.853531 -82.777252 27,675 92 362 1152
2021-07-13 15:34:31 GMT 37.854279 -82.797089 27,475 92 361 1344
2021-07-13 15:34:24 GMT 37.854881 -82.813927 27,325 92 361 1280
2021-07-13 15:34:21 GMT 37.855087 -82.818565 27,275 92 361 1216
2021-07-13 15:34:11 GMT 37.855907 -82.841690 27,025 92 360 1280
2021-07-13 15:34:00 GMT 37.856701 -82.862648 26,825 92 359 1280
2021-07-13 15:33:52 GMT 37.857376 -82.881500 26,650 92 358 1216
2021-07-13 15:33:48 GMT 37.857605 -82.887344 26,575 92 358 1280
2021-07-13 15:33:40 GMT 37.858246 -82.905754 26,400 92 357 1152
2021-07-13 15:33:28 GMT 37.859161 -82.929947 26,175 92 357 1216
2021-07-13 15:33:19 GMT 37.859802 -82.948235 26,000 92 356 1152
2021-07-13 15:33:09 GMT 37.860672 -82.971436 25,750 92 355 0
2021-07-13 15:32:57 GMT 37.861496 -82.993820 25,500 92 355 1536
2021-07-13 15:32:48 GMT 37.862183 -83.013687 25,250 92 356 1536
2021-07-13 15:32:36 GMT 37.863029 -83.037415 24,975 92 356 1472
2021-07-13 15:32:26 GMT 37.863682 -83.056580 24,725 92 357 1536
2021-07-13 15:32:17 GMT 37.864426 -83.077850 24,475 92 358 1600
2021-07-13 15:32:05 GMT 37.865250 -83.101288 24,200 92 359 1536
2021-07-13 15:31:55 GMT 37.865936 -83.122269 23,925 92 360 1536
2021-07-13 15:31:45 GMT 37.866753 -83.145370 23,650 92 361 1664
2021-07-13 15:31:35 GMT 37.867447 -83.165215 23,400 92 362 1792
2021-07-13 15:31:24 GMT 37.868179 -83.187309 23,050 92 366 2368
2021-07-13 15:31:13 GMT 37.869003 -83.212204 22,700 92 369 1344
2021-07-13 15:31:03 GMT 37.869732 -83.233376 22,450 92 370 1600
2021-07-13 15:30:54 GMT 37.870480 -83.254158 22,225 92 370 896
2021-07-13 15:30:36 GMT 37.871780 -83.292007 21,850 92 368 1344
2021-07-13 15:30:30 GMT 37.872154 -83.303177 21,750 92 368 1472
2021-07-13 15:30:23 GMT 37.872761 -83.322166 21,500 92 372 1536
2021-07-13 15:30:12 GMT 37.873459 -83.343956 21,300 92 374 960
2021-07-13 15:30:01 GMT 37.874222 -83.366241 21,150 92 374 832
2021-07-13 15:29:51 GMT 37.874992 -83.391960 21,000 92 373 512
2021-07-13 15:29:41 GMT 37.875595 -83.411537 20,925 92 371 704
2021-07-13 15:29:15 GMT 37.877289 -83.467224 20,375 91 374 1600
2021-07-13 15:29:09 GMT 37.877655 -83.480377 20,200 92 376 1536
2021-07-13 15:28:48 GMT 37.879185 -83.527199 19,750 92 372 1920
2021-07-13 15:28:38 GMT 37.879852 -83.548454 19,500 92 372 1920
2021-07-13 15:28:22 GMT 37.880997 -83.585968 18,900 92 376 1728
2021-07-13 15:28:16 GMT 37.881279 -83.595207 18,775 92 376 1728
2021-07-13 15:27:39 GMT 37.883835 -83.676842 17,825 92 377 1152
2021-07-13 15:27:37 GMT 37.884026 -83.684357 17,775 91 373 1280
2021-07-13 15:25:55 GMT 37.890335 -83.902298 15,575 92 363 1344
2021-07-13 15:25:45 GMT 37.890976 -83.925262 15,325 92 363 1344
2021-07-13 15:24:11 GMT 37.896240 -84.121902 12,950 91 341 1664
2021-07-13 15:23:30 GMT 37.898392 -84.206230 12,000 91 341 1664
2021-07-13 15:23:03 GMT 37.899574 -84.257019 11,450 91 313 1344
2021-07-13 15:22:25 GMT 37.901413 -84.331406 10,525 91 308 1856
2021-07-13 15:22:11 GMT 37.901993 -84.355476 10,050 92 306 2368
2021-07-13 15:22:04 GMT 37.902420 -84.369392 9,725 92 306 2176
2021-07-13 15:21:53 GMT 37.902973 -84.386879 9,450 92 302 1408
2021-07-13 15:21:43 GMT 37.903656 -84.404747 9,150 92 296 2240
2021-07-13 15:21:33 GMT 37.904415 -84.423065 8,725 92 296 2752
2021-07-13 15:21:21 GMT 37.905212 -84.441444 8,250 94 297 2560
2021-07-13 15:21:12 GMT 37.907021 -84.459724 7,825 100 294 2176
2021-07-13 15:21:00 GMT 37.910110 -84.477440 7,400 104 291 2496
2021-07-13 15:20:50 GMT 37.914284 -84.493942 6,975 110 289 2368
2021-07-13 15:20:41 GMT 37.919724 -84.509468 6,525 118 285 2560
2021-07-13 15:20:29 GMT 37.926544 -84.524658 6,100 120 283 2624
2021-07-13 15:20:20 GMT 37.933323 -84.539200 5,725 120 279 1216
2021-07-13 15:20:06 GMT 37.946945 -84.568886 5,500 119 243
2021-07-13 15:19:39 GMT 37.959721 -84.597778 4,800 122 239
2021-07-13 15:19:03 GMT 37.979721 -84.637779 3,400 166 213

Making use of Plane Finder data

You are free to use the raw flight data, aircraft information and images provided in this report for your own purposes provided the data is correctly attributed to Plane Finder. We ask that you please credit Plane Finder and link to planefinder.net in close proximity to the content.

Optionally one of the following logos (no smaller then 150x24px) can be used and must link to planefinder.net

Embedding the Plane Finder map

You are welcome to embed the Plane Finder playback map on your website to offer visitors a more interactive experience. We suggest using the following HTML code:

<iframe src="//planefinder.net/data/report/AA6039-N624AE-7700-squawk-2021-07-13/map" width="800" height="600" seamless="seamless"></iframe>

Where our data comes from

Plane Finder has a global network of data feeds and antenna radars that receive data broadcast directly from aircraft. The primary technologies used are ADS-B and MLAT. We also show feeds from the FAA and a FLARM glider feed.

Click here to find out more about the Plane Finder network.

How we collect our data